Dirección General De Aeronáutica Civil

Dirección Meteorológica de Chile - Servicios Climáticos

Informe General de Control de Calidad de la Estación

Listado de niveles de control de calidad para algunos parámetros
Estación Polizones (410030)
Fecha de Revisión de los datos :

Elementos

Registros Niveles de Control Total
Nivel 0 Nivel 1 Nivel 2 Nivel 3 Errores Porcentaje
01 Temperatura del Aire Seco 114.077 0 . 1.264 1.11 % 0 . 0 . 1.264 1.11 %
02 Temperatura de Rocío 45.148 0 . 0 . 0 . 0 . 0 0.00 %
03 Humedad Relativa del Aire 114.071 0 . 0 . 0 . 0 . 0 0.00 %
04 Temperatura Máxima PM 4.739 0 . 0 . 0 . 0 . 0 0.00 %
05 Temperatura Mínima AM 4.605 0 . 0 . 1 0.02 % 0 . 1 0.02 %
06 Agua Caida, Acumulada 6 Horas 19.053 0 . 0 . 0 . 0 . 0 0.00 %
07 Presión Atm. a Nivel de Estación (QFE) 95.978 0 . 0 . 0 . 0 . 0 0.00 %

Totales

397.671 . 0.0000 % . 0.3179 % . 0.0003 % . 0.0000 % 1,265 0.3181 %

Detalle de Errores Recientes

Fecha del Dato Descripción Información Error Fecha Ingreso
2012-10-10 09:00:00 HR (Humedad Relativa) es igual a 100% y Ts <> Td 8.0 - 7.6 2024-07-06 04:16:00
2012-10-10 10:00:00 HR (Humedad Relativa) es igual a 100% y Ts <> Td 8.0 - 7.1 2024-07-06 04:16:00
Total de Errores Recientes 2

Detalle de Errores Encontrados

Nivel Fecha del Dato Descripción Información Error Fecha Ingreso
1 2011-04-01 07:00:00 Ts debe ser mayor o igual a Td Ts=8.6 - Td=9.0 2023-11-21 00:59:00
1 2011-04-01 08:00:00 Ts debe ser mayor o igual a Td Ts=8.5 - Td=8.8 2023-11-21 00:59:00
1 2011-04-01 11:00:00 Ts debe ser mayor o igual a Td Ts=7.8 - Td=8.0 2023-11-21 00:59:00
1 2011-04-02 03:00:00 Ts debe ser mayor o igual a Td Ts=6.6 - Td=7.0 2023-11-21 00:59:00
1 2011-04-02 03:00:00 HR (Humedad Relativa) es igual a 100% y Ts <> Td 6.6 - 7.0 2023-11-21 00:59:00
1 2011-04-02 04:00:00 Ts debe ser mayor o igual a Td Ts=6.6 - Td=7.0 2023-11-21 00:59:00
1 2011-04-02 04:00:00 HR (Humedad Relativa) es igual a 100% y Ts <> Td 6.6 - 7.0 2023-11-21 00:59:00
1 2011-04-02 05:00:00 HR (Humedad Relativa) es igual a 100% y Ts <> Td 6.5 - 6.0 2023-11-21 00:59:00
1 2011-04-02 06:00:00 Ts debe ser mayor o igual a Td Ts=5.6 - Td=6.0 2023-11-21 00:59:00
1 2011-04-02 06:00:00 HR (Humedad Relativa) es igual a 100% y Ts <> Td 5.6 - 6.0 2023-11-21 00:59:00
1 2011-04-02 07:00:00 Ts debe ser mayor o igual a Td Ts=5.5 - Td=6.0 2023-11-21 00:59:00
1 2011-04-02 07:00:00 HR (Humedad Relativa) es igual a 100% y Ts <> Td 5.5 - 6.0 2023-11-21 00:59:00
1 2011-04-02 10:00:00 Ts debe ser mayor o igual a Td Ts=2.6 - Td=3.0 2023-11-21 00:59:00
1 2011-04-02 10:00:00 HR (Humedad Relativa) es igual a 100% y Ts <> Td 2.6 - 3.0 2023-11-21 00:59:00
1 2011-04-02 11:00:00 Ts debe ser mayor o igual a Td Ts=2.7 - Td=3.0 2023-11-21 00:59:00
1 2011-04-02 11:00:00 HR (Humedad Relativa) es igual a 100% y Ts <> Td 2.7 - 3.0 2023-11-21 00:59:00
1 2011-04-02 12:00:00 Ts debe ser mayor o igual a Td Ts=2.7 - Td=3.0 2023-11-21 00:59:00
1 2011-04-02 12:00:00 HR (Humedad Relativa) es igual a 100% y Ts <> Td 2.7 - 3.0 2023-11-21 00:59:00
1 2011-04-02 21:00:00 Ts debe ser mayor o igual a Td Ts=13.5 - Td=13.7 2023-11-21 00:59:00
1 2011-04-03 01:00:00 Ts debe ser mayor o igual a Td Ts=12.8 - Td=13.0 2023-11-21 00:59:00
1 2011-04-03 02:00:00 Ts debe ser mayor o igual a Td Ts=12.8 - Td=13.0 2023-11-21 00:59:00
1 2011-04-05 02:00:00 Ts debe ser mayor o igual a Td Ts=11.9 - Td=12.0 2023-11-21 00:59:00
1 2011-04-05 03:00:00 Ts debe ser mayor o igual a Td Ts=11.8 - Td=12.0 2023-11-21 00:59:00
1 2011-04-05 04:00:00 Ts debe ser mayor o igual a Td Ts=11.8 - Td=12.0 2023-11-21 00:59:00
1 2011-04-05 05:00:00 Ts debe ser mayor o igual a Td Ts=11.7 - Td=12.0 2023-11-21 00:59:00
1 2011-04-05 05:00:00 HR (Humedad Relativa) es igual a 100% y Ts <> Td 11.7 - 12.0 2023-11-21 00:59:00
1 2011-04-05 06:00:00 Ts debe ser mayor o igual a Td Ts=11.7 - Td=12.0 2023-11-21 00:59:00
1 2011-04-05 06:00:00 HR (Humedad Relativa) es igual a 100% y Ts <> Td 11.7 - 12.0 2023-11-21 00:59:00
1 2011-04-08 03:00:00 Ts debe ser mayor o igual a Td Ts=6.8 - Td=7.0 2023-11-21 00:59:00
1 2011-04-08 04:00:00 Ts debe ser mayor o igual a Td Ts=6.7 - Td=7.0 2023-11-21 00:59:00
1 2011-04-08 04:00:00 HR (Humedad Relativa) es igual a 100% y Ts <> Td 6.7 - 7.0 2023-11-21 00:59:00
1 2011-04-08 05:00:00 Ts debe ser mayor o igual a Td Ts=5.7 - Td=6.0 2023-11-21 00:59:00
1 2011-04-08 05:00:00 HR (Humedad Relativa) es igual a 100% y Ts <> Td 5.7 - 6.0 2023-11-21 00:59:00
1 2011-04-08 07:00:00 Ts debe ser mayor o igual a Td Ts=7.9 - Td=8.0 2023-11-21 00:59:00
1 2011-04-08 12:00:00 Ts debe ser mayor o igual a Td Ts=7.9 - Td=8.0 2023-11-21 00:59:00
1 2011-04-08 13:00:00 HR (Humedad Relativa) es igual a 100% y Ts <> Td 8.4 - 8.0 2023-11-21 00:59:00
1 2011-04-09 08:00:00 Ts debe ser mayor o igual a Td Ts=6.8 - Td=7.0 2023-11-21 00:59:00
1 2011-04-09 11:00:00 HR (Humedad Relativa) es igual a 100% y Ts <> Td 5.3 - 5.0 2023-11-21 00:59:00
1 2011-04-09 12:00:00 Ts debe ser mayor o igual a Td Ts=4.6 - Td=5.0 2023-11-21 00:59:00
1 2011-04-09 12:00:00 HR (Humedad Relativa) es igual a 100% y Ts <> Td 4.6 - 5.0 2023-11-21 00:59:00
1 2011-04-10 02:00:00 Ts debe ser mayor o igual a Td Ts=10.5 - Td=11.0 2023-11-21 00:59:00
1 2011-04-10 02:00:00 HR (Humedad Relativa) es igual a 100% y Ts <> Td 10.5 - 11.0 2023-11-21 00:59:00
1 2011-04-10 03:00:00 Ts debe ser mayor o igual a Td Ts=10.7 - Td=11.0 2023-11-21 00:59:00
1 2011-04-10 03:00:00 HR (Humedad Relativa) es igual a 100% y Ts <> Td 10.7 - 11.0 2023-11-21 00:59:00
1 2011-04-10 07:00:00 HR (Humedad Relativa) es igual a 100% y Ts <> Td 11.3 - 11.0 2023-11-21 00:59:00
1 2011-04-10 08:00:00 HR (Humedad Relativa) es igual a 100% y Ts <> Td 11.4 - 11.0 2023-11-21 00:59:00
1 2011-04-10 11:00:00 Ts debe ser mayor o igual a Td Ts=11.7 - Td=11.8 2023-11-21 00:59:00
1 2011-04-10 12:00:00 Ts debe ser mayor o igual a Td Ts=11.7 - Td=11.8 2023-11-21 00:59:00
1 2011-04-11 09:00:00 Ts debe ser mayor o igual a Td Ts=10.7 - Td=11.0 2023-11-21 00:59:00
1 2011-04-11 11:00:00 HR (Humedad Relativa) es igual a 100% y Ts <> Td 10.4 - 10.0 2023-11-21 00:59:00
1 2011-04-11 12:00:00 Ts debe ser mayor o igual a Td Ts=10.5 - Td=11.0 2023-11-21 00:59:00
1 2011-04-11 12:00:00 HR (Humedad Relativa) es igual a 100% y Ts <> Td 10.5 - 11.0 2023-11-21 00:59:00
1 2011-04-12 02:00:00 HR (Humedad Relativa) es igual a 100% y Ts <> Td 9.3 - 9.0 2023-11-21 00:59:00
1 2011-04-12 03:00:00 Ts debe ser mayor o igual a Td Ts=8.8 - Td=9.0 2023-11-21 00:59:00
1 2011-04-12 04:00:00 Ts debe ser mayor o igual a Td Ts=8.6 - Td=9.0 2023-11-21 00:59:00
1 2011-04-12 08:00:00 Ts debe ser mayor o igual a Td Ts=7.7 - Td=8.0 2023-11-21 00:59:00
1 2011-04-12 08:00:00 HR (Humedad Relativa) es igual a 100% y Ts <> Td 7.7 - 8.0 2023-11-21 00:59:00
1 2011-04-12 09:00:00 Ts debe ser mayor o igual a Td Ts=7.8 - Td=8.0 2023-11-21 00:59:00
1 2011-04-12 10:00:00 Ts debe ser mayor o igual a Td Ts=6.5 - Td=7.0 2023-11-21 00:59:00
1 2011-04-12 10:00:00 HR (Humedad Relativa) es igual a 100% y Ts <> Td 6.5 - 7.0 2023-11-21 00:59:00
1 2011-04-12 11:00:00 HR (Humedad Relativa) es igual a 100% y Ts <> Td 6.4 - 6.0 2023-11-21 00:59:00
1 2011-04-14 07:00:00 HR (Humedad Relativa) es igual a 100% y Ts <> Td 6.4 - 6.0 2023-11-21 00:59:00
1 2011-04-14 09:00:00 Ts debe ser mayor o igual a Td Ts=5.8 - Td=6.0 2023-11-21 00:59:00
1 2011-04-15 04:00:00 Ts debe ser mayor o igual a Td Ts=3.7 - Td=4.0 2023-11-21 00:59:00
1 2011-04-15 04:00:00 HR (Humedad Relativa) es igual a 100% y Ts <> Td 3.7 - 4.0 2023-11-21 00:59:00
1 2011-04-15 05:00:00 Ts debe ser mayor o igual a Td Ts=3.8 - Td=4.0 2023-11-21 00:59:00
1 2011-04-15 05:00:00 HR (Humedad Relativa) es igual a 100% y Ts <> Td 3.8 - 4.0 2023-11-21 00:59:00
1 2011-04-15 06:00:00 HR (Humedad Relativa) es igual a 100% y Ts <> Td 3.3 - 3.0 2023-11-21 00:59:00
1 2011-04-15 08:00:00 Ts debe ser mayor o igual a Td Ts=4.5 - Td=5.0 2023-11-21 00:59:00
1 2011-04-15 08:00:00 HR (Humedad Relativa) es igual a 100% y Ts <> Td 4.5 - 5.0 2023-11-21 00:59:00
1 2011-04-15 09:00:00 Ts debe ser mayor o igual a Td Ts=4.6 - Td=5.0 2023-11-21 00:59:00
1 2011-04-15 09:00:00 HR (Humedad Relativa) es igual a 100% y Ts <> Td 4.6 - 5.0 2023-11-21 00:59:00
1 2011-04-15 10:00:00 HR (Humedad Relativa) es igual a 100% y Ts <> Td 3.4 - 3.0 2023-11-21 00:59:00
1 2011-04-15 11:00:00 Ts debe ser mayor o igual a Td Ts=2.9 - Td=3.0 2023-11-21 00:59:00
1 2011-04-15 12:00:00 Ts debe ser mayor o igual a Td Ts=3.6 - Td=4.0 2023-11-21 00:59:00
1 2011-04-15 12:00:00 HR (Humedad Relativa) es igual a 100% y Ts <> Td 3.6 - 4.0 2023-11-21 00:59:00
1 2011-04-16 03:00:00 Ts debe ser mayor o igual a Td Ts=4.6 - Td=5.0 2023-11-21 00:59:00
1 2011-04-16 03:00:00 HR (Humedad Relativa) es igual a 100% y Ts <> Td 4.6 - 5.0 2023-11-21 00:59:00
1 2011-04-16 04:00:00 HR (Humedad Relativa) es igual a 100% y Ts <> Td 3.5 - 3.0 2023-11-21 00:59:00
1 2011-04-16 05:00:00 Ts debe ser mayor o igual a Td Ts=2.6 - Td=3.0 2023-11-21 00:59:00
1 2011-04-16 05:00:00 HR (Humedad Relativa) es igual a 100% y Ts <> Td 2.6 - 3.0 2023-11-21 00:59:00
1 2011-04-16 06:00:00 Ts debe ser mayor o igual a Td Ts=1.6 - Td=2.0 2023-11-21 00:59:00
1 2011-04-16 06:00:00 HR (Humedad Relativa) es igual a 100% y Ts <> Td 1.6 - 2.0 2023-11-21 00:59:00
1 2011-04-16 07:00:00 Ts debe ser mayor o igual a Td Ts=0.7 - Td=1.0 2023-11-21 00:59:00
1 2011-04-16 07:00:00 HR (Humedad Relativa) es igual a 100% y Ts <> Td 0.7 - 1.0 2023-11-21 00:59:00
1 2011-04-16 08:00:00 HR (Humedad Relativa) es igual a 100% y Ts <> Td 0.3 - 0.0 2023-11-21 00:59:00
1 2011-04-16 09:00:00 Ts debe ser mayor o igual a Td Ts=-0.2 - Td=0.0 2023-11-21 00:59:00
1 2011-04-16 09:00:00 HR (Humedad Relativa) es igual a 100% y Ts <> Td -0.2 - 0.0 2023-11-21 00:59:00
1 2011-04-16 12:00:00 Ts debe ser mayor o igual a Td Ts=-0.4 - Td=0.0 2023-11-21 00:59:00
1 2011-04-16 12:00:00 HR (Humedad Relativa) es igual a 100% y Ts <> Td -0.4 - 0.0 2023-11-21 00:59:00
1 2011-04-16 23:00:00 Ts debe ser mayor o igual a Td Ts=6.6 - Td=7.0 2023-11-21 00:59:00
1 2011-04-17 04:00:00 HR (Humedad Relativa) es igual a 100% y Ts <> Td 3.3 - 3.0 2023-11-21 00:59:00
1 2011-04-17 06:00:00 Ts debe ser mayor o igual a Td Ts=4.7 - Td=5.0 2023-11-21 00:59:00
1 2011-04-17 06:00:00 HR (Humedad Relativa) es igual a 100% y Ts <> Td 4.7 - 5.0 2023-11-21 00:59:00
1 2011-04-17 10:00:00 Ts debe ser mayor o igual a Td Ts=3.5 - Td=4.0 2023-11-21 00:59:00
1 2011-04-17 10:00:00 HR (Humedad Relativa) es igual a 100% y Ts <> Td 3.5 - 4.0 2023-11-21 00:59:00
1 2011-04-17 11:00:00 HR (Humedad Relativa) es igual a 100% y Ts <> Td 5.3 - 5.0 2023-11-21 00:59:00
1 2011-04-17 12:00:00 Ts debe ser mayor o igual a Td Ts=4.9 - Td=5.0 2023-11-21 00:59:00
1 2011-04-17 13:00:00 Ts debe ser mayor o igual a Td Ts=7.8 - Td=7.9 2023-11-21 00:59:00
1 2011-04-18 07:00:00 Ts debe ser mayor o igual a Td Ts=9.6 - Td=9.7 2023-11-21 00:59:00
1 2011-04-18 12:00:00 Ts debe ser mayor o igual a Td Ts=9.6 - Td=10.0 2023-11-21 00:59:00
1 2011-04-18 12:00:00 HR (Humedad Relativa) es igual a 100% y Ts <> Td 9.6 - 10.0 2023-11-21 00:59:00
1 2011-04-19 02:00:00 Ts debe ser mayor o igual a Td Ts=7.9 - Td=8.0 2023-11-21 00:59:00
1 2011-04-19 04:00:00 Ts debe ser mayor o igual a Td Ts=7.7 - Td=8.0 2023-11-21 00:59:00
1 2011-04-19 04:00:00 HR (Humedad Relativa) es igual a 100% y Ts <> Td 7.7 - 8.0 2023-11-21 00:59:00
1 2011-04-19 08:00:00 HR (Humedad Relativa) es igual a 100% y Ts <> Td 9.3 - 9.0 2023-11-21 00:59:00
1 2011-04-19 09:00:00 Ts debe ser mayor o igual a Td Ts=9.5 - Td=10.0 2023-11-21 00:59:00
1 2011-04-19 11:00:00 HR (Humedad Relativa) es igual a 100% y Ts <> Td 7.4 - 7.0 2023-11-21 00:59:00
1 2011-04-19 12:00:00 Ts debe ser mayor o igual a Td Ts=6.9 - Td=7.0 2023-11-21 00:59:00
1 2011-04-22 04:00:00 Ts debe ser mayor o igual a Td Ts=5.6 - Td=5.9 2023-11-21 00:59:00
1 2011-04-22 10:00:00 Ts debe ser mayor o igual a Td Ts=5.5 - Td=5.6 2023-11-21 00:59:00
1 2011-04-22 11:00:00 Ts debe ser mayor o igual a Td Ts=4.6 - Td=4.7 2023-11-21 00:59:00
1 2011-04-22 12:00:00 Ts debe ser mayor o igual a Td Ts=4.6 - Td=5.0 2023-11-21 00:59:00
1 2011-04-22 12:00:00 HR (Humedad Relativa) es igual a 100% y Ts <> Td 4.6 - 5.0 2023-11-21 00:59:00
1 2011-04-23 02:00:00 Ts debe ser mayor o igual a Td Ts=6.6 - Td=6.7 2023-11-21 00:59:00
1 2011-04-23 03:00:00 Ts debe ser mayor o igual a Td Ts=6.7 - Td=6.9 2023-11-21 00:59:00
1 2011-04-23 05:00:00 HR (Humedad Relativa) es igual a 100% y Ts <> Td 6.3 - 6.0 2023-11-21 00:59:00
1 2011-04-24 11:00:00 Ts debe ser mayor o igual a Td Ts=10.6 - Td=11.0 2023-11-21 00:59:00
1 2011-04-24 11:00:00 HR (Humedad Relativa) es igual a 100% y Ts <> Td 10.6 - 11.0 2023-11-21 00:59:00
1 2011-04-25 03:00:00 Ts debe ser mayor o igual a Td Ts=6.8 - Td=7.0 2023-11-21 00:59:00
1 2011-04-25 06:00:00 Ts debe ser mayor o igual a Td Ts=6.8 - Td=7.0 2023-11-21 00:59:00
1 2011-04-25 07:00:00 HR (Humedad Relativa) es igual a 100% y Ts <> Td 7.3 - 7.0 2023-11-21 00:59:00
1 2011-04-26 02:00:00 Ts debe ser mayor o igual a Td Ts=9.7 - Td=10.0 2023-11-21 00:59:00
1 2011-04-26 02:00:00 HR (Humedad Relativa) es igual a 100% y Ts <> Td 9.7 - 10.0 2023-11-21 00:59:00
1 2011-04-26 03:00:00 HR (Humedad Relativa) es igual a 100% y Ts <> Td 9.5 - 9.0 2023-11-21 00:59:00
1 2011-04-26 04:00:00 Ts debe ser mayor o igual a Td Ts=7.8 - Td=8.0 2023-11-21 00:59:00
1 2011-04-26 06:00:00 Ts debe ser mayor o igual a Td Ts=7.7 - Td=8.0 2023-11-21 00:59:00
1 2011-04-26 06:00:00 HR (Humedad Relativa) es igual a 100% y Ts <> Td 7.7 - 8.0 2023-11-21 00:59:00
1 2011-04-26 08:00:00 Ts debe ser mayor o igual a Td Ts=6.6 - Td=7.0 2023-11-21 00:59:00
1 2011-04-26 08:00:00 HR (Humedad Relativa) es igual a 100% y Ts <> Td 6.6 - 7.0 2023-11-21 00:59:00
1 2011-04-26 09:00:00 Ts debe ser mayor o igual a Td Ts=5.8 - Td=6.0 2023-11-21 00:59:00
1 2011-04-26 10:00:00 HR (Humedad Relativa) es igual a 100% y Ts <> Td 5.5 - 5.0 2023-11-21 00:59:00
1 2011-04-26 12:00:00 Ts debe ser mayor o igual a Td Ts=5.8 - Td=6.0 2023-11-21 00:59:00
1 2011-04-26 14:00:00 Ts debe ser mayor o igual a Td Ts=8.7 - Td=9.0 2023-11-21 00:59:00
1 2011-04-26 14:00:00 HR (Humedad Relativa) es igual a 100% y Ts <> Td 8.7 - 9.0 2023-11-21 00:59:00
1 2011-04-26 15:00:00 HR (Humedad Relativa) es igual a 100% y Ts <> Td 10.3 - 10.0 2023-11-21 00:59:00
1 2011-04-26 16:00:00 Ts debe ser mayor o igual a Td Ts=10.6 - Td=11.0 2023-11-21 00:59:00
1 2011-04-27 12:00:00 Ts debe ser mayor o igual a Td Ts=11.8 - Td=12.0 2023-11-21 00:59:00
1 2011-04-27 13:00:00 Ts debe ser mayor o igual a Td Ts=10.8 - Td=11.0 2023-11-21 00:59:00
1 2011-04-28 07:00:00 Ts debe ser mayor o igual a Td Ts=4.8 - Td=4.9 2023-11-21 00:59:00
1 2011-04-28 11:00:00 Ts debe ser mayor o igual a Td Ts=4.8 - Td=5.0 2023-11-21 00:59:00
1 2011-04-30 00:00:00 Ts debe ser mayor o igual a Td Ts=4.5 - Td=5.0 2023-11-21 00:59:00
1 2011-04-30 01:00:00 Ts debe ser mayor o igual a Td Ts=4.6 - Td=5.0 2023-11-21 00:59:00
1 2011-04-30 01:00:00 HR (Humedad Relativa) es igual a 100% y Ts <> Td 4.6 - 5.0 2023-11-21 00:59:00
1 2011-05-01 01:00:00 Ts debe ser mayor o igual a Td Ts=4.8 - Td=4.9 2023-11-21 00:59:00
1 2011-05-01 03:00:00 Ts debe ser mayor o igual a Td Ts=2.7 - Td=3.0 2023-11-21 00:59:00
1 2011-05-01 03:00:00 HR (Humedad Relativa) es igual a 100% y Ts <> Td 2.7 - 3.0 2023-11-21 00:59:00
1 2011-05-01 04:00:00 Ts debe ser mayor o igual a Td Ts=2.6 - Td=3.0 2023-11-21 00:59:00
1 2011-05-01 04:00:00 HR (Humedad Relativa) es igual a 100% y Ts <> Td 2.6 - 3.0 2023-11-21 00:59:00
1 2011-05-01 05:00:00 Ts debe ser mayor o igual a Td Ts=0.8 - Td=1.0 2023-11-21 00:59:00
1 2011-05-01 06:00:00 HR (Humedad Relativa) es igual a 100% y Ts <> Td 0.3 - 0.0 2023-11-21 00:59:00
1 2011-05-01 10:00:00 Ts debe ser mayor o igual a Td Ts=-1.2 - Td=-1.0 2023-11-21 00:59:00
1 2011-05-01 10:00:00 HR (Humedad Relativa) es igual a 100% y Ts <> Td -1.2 - -1.0 2023-11-21 00:59:00
1 2011-05-01 11:00:00 Ts debe ser mayor o igual a Td Ts=-1.3 - Td=-1.0 2023-11-21 00:59:00
1 2011-05-01 11:00:00 HR (Humedad Relativa) es igual a 100% y Ts <> Td -1.3 - -1.0 2023-11-21 00:59:00
1 2011-05-01 12:00:00 HR (Humedad Relativa) es igual a 100% y Ts <> Td -1.6 - -2.0 2023-11-21 00:59:00
1 2011-05-03 02:00:00 Ts debe ser mayor o igual a Td Ts=4.9 - Td=5.0 2023-11-21 00:59:00
1 2011-05-03 04:00:00 Ts debe ser mayor o igual a Td Ts=5.7 - Td=6.0 2023-11-21 00:59:00
1 2011-05-03 04:00:00 HR (Humedad Relativa) es igual a 100% y Ts <> Td 5.7 - 6.0 2023-11-21 00:59:00
1 2011-05-03 05:00:00 Ts debe ser mayor o igual a Td Ts=6.7 - Td=7.0 2023-11-21 00:59:00
1 2011-05-03 05:00:00 HR (Humedad Relativa) es igual a 100% y Ts <> Td 6.7 - 7.0 2023-11-21 00:59:00
1 2011-05-03 06:00:00 Ts debe ser mayor o igual a Td Ts=7.7 - Td=8.0 2023-11-21 00:59:00
1 2011-05-03 07:00:00 Ts debe ser mayor o igual a Td Ts=7.7 - Td=7.9 2023-11-21 00:59:00
1 2011-05-03 22:00:00 Ts debe ser mayor o igual a Td Ts=9.7 - Td=9.8 2023-11-21 00:59:00
1 2011-05-03 23:00:00 Ts debe ser mayor o igual a Td Ts=9.6 - Td=9.7 2023-11-21 00:59:00
1 2011-05-04 00:00:00 Ts debe ser mayor o igual a Td Ts=9.6 - Td=10.0 2023-11-21 00:59:00
1 2011-05-04 01:00:00 Ts debe ser mayor o igual a Td Ts=9.6 - Td=10.0 2023-11-21 00:59:00
1 2011-05-04 01:00:00 HR (Humedad Relativa) es igual a 100% y Ts <> Td 9.6 - 10.0 2023-11-21 00:59:00
1 2011-05-04 02:00:00 Ts debe ser mayor o igual a Td Ts=9.8 - Td=10.0 2023-11-21 00:59:00
1 2011-05-04 03:00:00 Ts debe ser mayor o igual a Td Ts=9.8 - Td=10.0 2023-11-21 00:59:00
1 2011-05-04 04:00:00 Ts debe ser mayor o igual a Td Ts=9.8 - Td=10.0 2023-11-21 00:59:00
1 2011-05-04 05:00:00 Ts debe ser mayor o igual a Td Ts=9.9 - Td=10.0 2023-11-21 00:59:00
1 2011-05-04 06:00:00 Ts debe ser mayor o igual a Td Ts=9.8 - Td=10.0 2023-11-21 00:59:00
1 2011-05-04 07:00:00 Ts debe ser mayor o igual a Td Ts=9.8 - Td=10.0 2023-11-21 00:59:00
1 2011-05-04 08:00:00 HR (Humedad Relativa) es igual a 100% y Ts <> Td 9.3 - 9.0 2023-11-21 00:59:00
1 2011-05-04 13:00:00 Ts debe ser mayor o igual a Td Ts=9.6 - Td=10.0 2023-11-21 00:59:00
1 2011-05-04 13:00:00 HR (Humedad Relativa) es igual a 100% y Ts <> Td 9.6 - 10.0 2023-11-21 00:59:00
1 2011-05-04 14:00:00 Ts debe ser mayor o igual a Td Ts=10.6 - Td=10.8 2023-11-21 00:59:00
1 2011-05-05 08:00:00 Ts debe ser mayor o igual a Td Ts=8.5 - Td=8.8 2023-11-21 00:59:00
1 2011-05-05 09:00:00 Ts debe ser mayor o igual a Td Ts=7.7 - Td=8.0 2023-11-21 00:59:00
1 2011-05-05 09:00:00 HR (Humedad Relativa) es igual a 100% y Ts <> Td 7.7 - 8.0 2023-11-21 00:59:00
1 2011-05-05 11:00:00 Ts debe ser mayor o igual a Td Ts=7.8 - Td=7.9 2023-11-21 00:59:00
1 2011-05-05 12:00:00 Ts debe ser mayor o igual a Td Ts=7.7 - Td=8.0 2023-11-21 00:59:00
1 2011-05-06 01:00:00 Ts debe ser mayor o igual a Td Ts=4.5 - Td=4.7 2023-11-21 00:59:00
1 2011-05-06 03:00:00 Ts debe ser mayor o igual a Td Ts=4.6 - Td=4.7 2023-11-21 00:59:00
1 2011-05-06 05:00:00 Ts debe ser mayor o igual a Td Ts=4.5 - Td=4.7 2023-11-21 00:59:00
1 2011-05-07 01:00:00 Ts debe ser mayor o igual a Td Ts=5.9 - Td=6.0 2023-11-21 00:59:00
1 2011-05-07 02:00:00 Ts debe ser mayor o igual a Td Ts=6.9 - Td=7.0 2023-11-21 00:59:00
1 2011-05-07 06:00:00 Ts debe ser mayor o igual a Td Ts=8.6 - Td=9.0 2023-11-21 00:59:00
1 2011-05-07 06:00:00 HR (Humedad Relativa) es igual a 100% y Ts <> Td 8.6 - 9.0 2023-11-21 00:59:00
1 2011-05-07 07:00:00 HR (Humedad Relativa) es igual a 100% y Ts <> Td 8.4 - 8.0 2023-11-21 00:59:00
1 2011-05-07 08:00:00 Ts debe ser mayor o igual a Td Ts=8.8 - Td=9.0 2023-11-21 00:59:00
1 2011-05-07 09:00:00 Ts debe ser mayor o igual a Td Ts=9.6 - Td=10.0 2023-11-21 00:59:00
1 2011-05-07 10:00:00 HR (Humedad Relativa) es igual a 100% y Ts <> Td 9.4 - 9.0 2023-11-21 00:59:00
1 2011-05-07 11:00:00 Ts debe ser mayor o igual a Td Ts=8.8 - Td=9.0 2023-11-21 00:59:00
1 2011-05-07 12:00:00 HR (Humedad Relativa) es igual a 100% y Ts <> Td 8.4 - 8.0 2023-11-21 00:59:00
1 2011-05-08 03:00:00 Ts debe ser mayor o igual a Td Ts=3.6 - Td=4.0 2023-11-21 00:59:00
1 2011-05-08 03:00:00 HR (Humedad Relativa) es igual a 100% y Ts <> Td 3.6 - 4.0 2023-11-21 00:59:00
1 2011-05-08 06:00:00 HR (Humedad Relativa) es igual a 100% y Ts <> Td 1.3 - 1.0 2023-11-21 00:59:00
1 2011-05-08 08:00:00 HR (Humedad Relativa) es igual a 100% y Ts <> Td 0.3 - 0.0 2023-11-21 00:59:00
1 2011-05-08 11:00:00 HR (Humedad Relativa) es igual a 100% y Ts <> Td -1.6 - -2.0 2023-11-21 00:59:00
1 2011-05-09 04:00:00 HR (Humedad Relativa) es igual a 100% y Ts <> Td 2.5 - 2.0 2023-11-21 00:59:00
1 2011-05-09 05:00:00 Ts debe ser mayor o igual a Td Ts=3.7 - Td=4.0 2023-11-21 00:59:00
1 2011-05-09 05:00:00 HR (Humedad Relativa) es igual a 100% y Ts <> Td 3.7 - 4.0 2023-11-21 00:59:00
1 2011-05-10 11:00:00 Ts debe ser mayor o igual a Td Ts=8.8 - Td=9.0 2023-11-21 00:59:00
1 2011-05-10 12:00:00 Ts debe ser mayor o igual a Td Ts=7.8 - Td=8.0 2023-11-21 00:59:00
1 2011-05-10 13:00:00 Ts debe ser mayor o igual a Td Ts=7.7 - Td=8.0 2023-11-21 00:59:00
1 2011-05-10 13:00:00 HR (Humedad Relativa) es igual a 100% y Ts <> Td 7.7 - 8.0 2023-11-21 00:59:00
1 2011-05-11 02:00:00 Ts debe ser mayor o igual a Td Ts=4.6 - Td=5.0 2023-11-21 00:59:00
1 2011-05-11 02:00:00 HR (Humedad Relativa) es igual a 100% y Ts <> Td 4.6 - 5.0 2023-11-21 00:59:00
1 2011-05-11 09:00:00 Ts debe ser mayor o igual a Td Ts=5.9 - Td=6.0 2023-11-21 00:59:00
1 2011-05-11 11:00:00 Ts debe ser mayor o igual a Td Ts=5.8 - Td=6.0 2023-11-21 00:59:00
1 2011-05-11 12:00:00 Ts debe ser mayor o igual a Td Ts=6.7 - Td=7.0 2023-11-21 00:59:00
1 2011-05-11 12:00:00 HR (Humedad Relativa) es igual a 100% y Ts <> Td 6.7 - 7.0 2023-11-21 00:59:00
1 2011-05-12 01:00:00 Ts debe ser mayor o igual a Td Ts=6.6 - Td=7.0 2023-11-21 00:59:00
1 2011-05-12 01:00:00 HR (Humedad Relativa) es igual a 100% y Ts <> Td 6.6 - 7.0 2023-11-21 00:59:00
1 2011-05-12 03:00:00 HR (Humedad Relativa) es igual a 100% y Ts <> Td 5.4 - 5.0 2023-11-21 00:59:00
1 2011-05-12 04:00:00 Ts debe ser mayor o igual a Td Ts=6.7 - Td=7.0 2023-11-21 00:59:00
1 2011-05-12 04:00:00 HR (Humedad Relativa) es igual a 100% y Ts <> Td 6.7 - 7.0 2023-11-21 00:59:00
1 2011-05-12 05:00:00 Ts debe ser mayor o igual a Td Ts=5.8 - Td=6.0 2023-11-21 00:59:00
1 2011-05-12 07:00:00 Ts debe ser mayor o igual a Td Ts=5.9 - Td=6.0 2023-11-21 00:59:00
1 2011-05-12 08:00:00 Ts debe ser mayor o igual a Td Ts=5.8 - Td=6.0 2023-11-21 00:59:00
1 2011-05-12 11:00:00 HR (Humedad Relativa) es igual a 100% y Ts <> Td 6.5 - 6.0 2023-11-21 00:59:00
1 2011-05-13 02:00:00 HR (Humedad Relativa) es igual a 100% y Ts <> Td 9.4 - 9.0 2023-11-21 00:59:00
1 2011-05-13 04:00:00 Ts debe ser mayor o igual a Td Ts=10.6 - Td=11.0 2023-11-21 00:59:00
1 2011-05-13 04:00:00 HR (Humedad Relativa) es igual a 100% y Ts <> Td 10.6 - 11.0 2023-11-21 00:59:00
1 2011-05-13 06:00:00 HR (Humedad Relativa) es igual a 100% y Ts <> Td 11.4 - 11.0 2023-11-21 00:59:00
1 2011-05-13 10:00:00 Ts debe ser mayor o igual a Td Ts=10.7 - Td=11.0 2023-11-21 00:59:00
1 2011-05-13 10:00:00 HR (Humedad Relativa) es igual a 100% y Ts <> Td 10.7 - 11.0 2023-11-21 00:59:00
1 2011-05-13 14:00:00 Ts debe ser mayor o igual a Td Ts=10.8 - Td=11.0 2023-11-21 00:59:00
1 2011-05-13 15:00:00 Ts debe ser mayor o igual a Td Ts=11.6 - Td=11.8 2023-11-21 00:59:00
1 2011-05-14 01:00:00 HR (Humedad Relativa) es igual a 100% y Ts <> Td 10.3 - 10.0 2023-11-21 01:00:00
1 2011-05-14 02:00:00 Ts debe ser mayor o igual a Td Ts=9.9 - Td=10.0 2023-11-21 01:00:00
1 2011-05-14 03:00:00 Ts debe ser mayor o igual a Td Ts=9.9 - Td=10.0 2023-11-21 01:00:00
1 2011-05-14 04:00:00 Ts debe ser mayor o igual a Td Ts=9.8 - Td=10.0 2023-11-21 01:00:00
1 2011-05-14 05:00:00 Ts debe ser mayor o igual a Td Ts=9.7 - Td=10.0 2023-11-21 01:00:00
1 2011-05-14 05:00:00 HR (Humedad Relativa) es igual a 100% y Ts <> Td 9.7 - 10.0 2023-11-21 01:00:00
1 2011-05-14 06:00:00 HR (Humedad Relativa) es igual a 100% y Ts <> Td 9.4 - 9.0 2023-11-21 01:00:00
1 2011-05-14 08:00:00 Ts debe ser mayor o igual a Td Ts=8.8 - Td=9.0 2023-11-21 01:00:00
1 2011-05-14 09:00:00 Ts debe ser mayor o igual a Td Ts=8.6 - Td=9.0 2023-11-21 01:00:00
1 2011-05-14 09:00:00 HR (Humedad Relativa) es igual a 100% y Ts <> Td 8.6 - 9.0 2023-11-21 01:00:00
1 2011-05-14 10:00:00 HR (Humedad Relativa) es igual a 100% y Ts <> Td 8.3 - 8.0 2023-11-21 01:00:00
1 2011-05-14 11:00:00 Ts debe ser mayor o igual a Td Ts=7.8 - Td=8.0 2023-11-21 01:00:00
1 2011-05-14 12:00:00 HR (Humedad Relativa) es igual a 100% y Ts <> Td 7.4 - 7.0 2023-11-21 01:00:00
1 2011-05-14 14:00:00 Ts debe ser mayor o igual a Td Ts=7.6 - Td=8.0 2023-11-21 01:00:00
1 2011-05-14 14:00:00 HR (Humedad Relativa) es igual a 100% y Ts <> Td 7.6 - 8.0 2023-11-21 01:00:00
1 2011-05-15 02:00:00 Ts debe ser mayor o igual a Td Ts=10.8 - Td=11.0 2023-11-21 01:00:00
1 2011-05-15 03:00:00 Ts debe ser mayor o igual a Td Ts=10.5 - Td=11.0 2023-11-21 01:00:00
1 2011-05-15 03:00:00 HR (Humedad Relativa) es igual a 100% y Ts <> Td 10.5 - 11.0 2023-11-21 01:00:00
1 2011-05-15 04:00:00 HR (Humedad Relativa) es igual a 100% y Ts <> Td 10.3 - 10.0 2023-11-21 01:00:00
1 2011-05-15 06:00:00 Ts debe ser mayor o igual a Td Ts=9.9 - Td=10.0 2023-11-21 01:00:00
1 2011-05-15 07:00:00 Ts debe ser mayor o igual a Td Ts=9.9 - Td=10.0 2023-11-21 01:00:00
1 2011-05-15 08:00:00 Ts debe ser mayor o igual a Td Ts=9.8 - Td=10.0 2023-11-21 01:00:00
1 2011-05-15 09:00:00 Ts debe ser mayor o igual a Td Ts=9.7 - Td=10.0 2023-11-21 01:00:00
1 2011-05-15 09:00:00 HR (Humedad Relativa) es igual a 100% y Ts <> Td 9.7 - 10.0 2023-11-21 01:00:00
1 2011-05-15 10:00:00 Ts debe ser mayor o igual a Td Ts=9.6 - Td=10.0 2023-11-21 01:00:00
1 2011-05-15 10:00:00 HR (Humedad Relativa) es igual a 100% y Ts <> Td 9.6 - 10.0 2023-11-21 01:00:00
1 2011-05-15 11:00:00 Ts debe ser mayor o igual a Td Ts=9.6 - Td=10.0 2023-11-21 01:00:00
1 2011-05-15 11:00:00 HR (Humedad Relativa) es igual a 100% y Ts <> Td 9.6 - 10.0 2023-11-21 01:00:00
1 2011-05-15 12:00:00 Ts debe ser mayor o igual a Td Ts=9.6 - Td=10.0 2023-11-21 01:00:00
1 2011-05-15 12:00:00 HR (Humedad Relativa) es igual a 100% y Ts <> Td 9.6 - 10.0 2023-11-21 01:00:00
1 2011-05-15 13:00:00 Ts debe ser mayor o igual a Td Ts=9.7 - Td=10.0 2023-11-21 01:00:00
1 2011-05-15 13:00:00 HR (Humedad Relativa) es igual a 100% y Ts <> Td 9.7 - 10.0 2023-11-21 01:00:00
1 2011-05-15 14:00:00 Ts debe ser mayor o igual a Td Ts=9.7 - Td=10.0 2023-11-21 01:00:00
1 2011-05-15 14:00:00 HR (Humedad Relativa) es igual a 100% y Ts <> Td 9.7 - 10.0 2023-11-21 01:00:00
1 2011-05-15 15:00:00 HR (Humedad Relativa) es igual a 100% y Ts <> Td 9.5 - 9.0 2023-11-21 01:00:00
1 2011-05-15 16:00:00 Ts debe ser mayor o igual a Td Ts=9.6 - Td=10.0 2023-11-21 01:00:00
1 2011-05-15 16:00:00 HR (Humedad Relativa) es igual a 100% y Ts <> Td 9.6 - 10.0 2023-11-21 01:00:00
1 2011-05-15 17:00:00 Ts debe ser mayor o igual a Td Ts=9.7 - Td=9.8 2023-11-21 01:00:00
1 2011-05-15 18:00:00 Ts debe ser mayor o igual a Td Ts=9.6 - Td=9.8 2023-11-21 01:00:00
1 2011-05-16 10:00:00 HR (Humedad Relativa) es igual a 100% y Ts <> Td 8.4 - 8.0 2023-11-21 01:00:00
1 2011-05-16 11:00:00 Ts debe ser mayor o igual a Td Ts=8.8 - Td=9.0 2023-11-21 01:00:00
1 2011-05-16 13:00:00 HR (Humedad Relativa) es igual a 100% y Ts <> Td 9.3 - 9.0 2023-11-21 01:00:00
1 2011-05-16 23:00:00 Ts debe ser mayor o igual a Td Ts=11.5 - Td=11.8 2023-11-21 01:00:00
1 2011-05-17 00:00:00 HR (Humedad Relativa) es igual a 100% y Ts <> Td 11.3 - 11.0 2023-11-21 01:00:00
1 2011-05-17 03:00:00 Ts debe ser mayor o igual a Td Ts=10.7 - Td=11.0 2023-11-21 01:00:00
1 2011-05-17 03:00:00 HR (Humedad Relativa) es igual a 100% y Ts <> Td 10.7 - 11.0 2023-11-21 01:00:00
1 2011-05-17 04:00:00 HR (Humedad Relativa) es igual a 100% y Ts <> Td 9.5 - 9.0 2023-11-21 01:00:00
1 2011-05-17 07:00:00 HR (Humedad Relativa) es igual a 100% y Ts <> Td 7.5 - 7.0 2023-11-21 01:00:00
1 2011-05-17 08:00:00 Ts debe ser mayor o igual a Td Ts=7.5 - Td=8.0 2023-11-21 01:00:00
1 2011-05-17 08:00:00 HR (Humedad Relativa) es igual a 100% y Ts <> Td 7.5 - 8.0 2023-11-21 01:00:00
1 2011-05-17 09:00:00 Ts debe ser mayor o igual a Td Ts=7.9 - Td=8.0 2023-11-21 01:00:00
1 2011-05-17 12:00:00 HR (Humedad Relativa) es igual a 100% y Ts <> Td 8.4 - 8.0 2023-11-21 01:00:00
1 2011-05-17 13:00:00 Ts debe ser mayor o igual a Td Ts=8.9 - Td=9.0 2023-11-21 01:00:00
1 2011-05-18 11:00:00 Ts debe ser mayor o igual a Td Ts=9.9 - Td=10.0 2023-11-21 01:00:00
1 2011-05-18 12:00:00 Ts debe ser mayor o igual a Td Ts=9.6 - Td=10.0 2023-11-21 01:00:00
1 2011-05-18 12:00:00 HR (Humedad Relativa) es igual a 100% y Ts <> Td 9.6 - 10.0 2023-11-21 01:00:00
1 2011-05-18 23:00:00 Ts debe ser mayor o igual a Td Ts=7.6 - Td=8.0 2023-11-21 01:00:00
1 2011-05-19 00:00:00 HR (Humedad Relativa) es igual a 100% y Ts <> Td 7.4 - 7.0 2023-11-21 01:00:00
1 2011-05-19 01:00:00 Ts debe ser mayor o igual a Td Ts=7.7 - Td=8.0 2023-11-21 01:00:00
1 2011-05-19 01:00:00 HR (Humedad Relativa) es igual a 100% y Ts <> Td 7.7 - 8.0 2023-11-21 01:00:00
1 2011-05-19 02:00:00 Ts debe ser mayor o igual a Td Ts=7.5 - Td=8.0 2023-11-21 01:00:00
1 2011-05-19 02:00:00 HR (Humedad Relativa) es igual a 100% y Ts <> Td 7.5 - 8.0 2023-11-21 01:00:00
1 2011-05-19 04:00:00 Ts debe ser mayor o igual a Td Ts=6.7 - Td=6.9 2023-11-21 01:00:00
1 2011-05-19 07:00:00 Ts debe ser mayor o igual a Td Ts=5.9 - Td=6.0 2023-11-21 01:00:00
1 2011-05-19 08:00:00 Ts debe ser mayor o igual a Td Ts=5.9 - Td=6.0 2023-11-21 01:00:00
1 2011-05-19 09:00:00 Ts debe ser mayor o igual a Td Ts=5.9 - Td=6.0 2023-11-21 01:00:00
1 2011-05-19 12:00:00 Ts debe ser mayor o igual a Td Ts=5.9 - Td=6.0 2023-11-21 01:00:00
1 2011-05-19 13:00:00 Ts debe ser mayor o igual a Td Ts=5.9 - Td=6.0 2023-11-21 01:00:00
1 2011-05-19 16:00:00 Ts debe ser mayor o igual a Td Ts=6.8 - Td=7.0 2023-11-21 01:00:00
1 2011-05-19 23:00:00 Ts debe ser mayor o igual a Td Ts=3.6 - Td=4.0 2023-11-21 01:00:00
1 2011-05-20 01:00:00 Ts debe ser mayor o igual a Td Ts=2.5 - Td=3.0 2023-11-21 01:00:00
1 2011-05-20 01:00:00 HR (Humedad Relativa) es igual a 100% y Ts <> Td 2.5 - 3.0 2023-11-21 01:00:00
1 2011-05-20 02:00:00 Ts debe ser mayor o igual a Td Ts=1.7 - Td=2.0 2023-11-21 01:00:00
1 2011-05-20 02:00:00 HR (Humedad Relativa) es igual a 100% y Ts <> Td 1.7 - 2.0 2023-11-21 01:00:00
1 2011-05-20 04:00:00 HR (Humedad Relativa) es igual a 100% y Ts <> Td 2.3 - 2.0 2023-11-21 01:00:00
1 2011-05-20 06:00:00 HR (Humedad Relativa) es igual a 100% y Ts <> Td 0.3 - 0.0 2023-11-21 01:00:00
1 2011-05-20 07:00:00 Ts debe ser mayor o igual a Td Ts=-0.4 - Td=0.0 2023-11-21 01:00:00
1 2011-05-20 07:00:00 HR (Humedad Relativa) es igual a 100% y Ts <> Td -0.4 - 0.0 2023-11-21 01:00:00
1 2011-05-20 08:00:00 HR (Humedad Relativa) es igual a 100% y Ts <> Td -0.5 - -1.0 2023-11-21 01:00:00
1 2011-05-20 09:00:00 Ts debe ser mayor o igual a Td Ts=-0.1 - Td=0.0 2023-11-21 01:00:00
1 2011-05-20 10:00:00 HR (Humedad Relativa) es igual a 100% y Ts <> Td 0.2 - 0.0 2023-11-21 01:00:00
1 2011-05-20 11:00:00 Ts debe ser mayor o igual a Td Ts=0.6 - Td=1.0 2023-11-21 01:00:00
1 2011-05-20 11:00:00 HR (Humedad Relativa) es igual a 100% y Ts <> Td 0.6 - 1.0 2023-11-21 01:00:00
1 2011-05-20 12:00:00 Ts debe ser mayor o igual a Td Ts=0.8 - Td=1.0 2023-11-21 01:00:00
1 2011-05-20 13:00:00 Ts debe ser mayor o igual a Td Ts=1.6 - Td=2.0 2023-11-21 01:00:00
1 2011-05-20 13:00:00 HR (Humedad Relativa) es igual a 100% y Ts <> Td 1.6 - 2.0 2023-11-21 01:00:00
1 2011-05-20 14:00:00 HR (Humedad Relativa) es igual a 100% y Ts <> Td 2.4 - 2.0 2023-11-21 01:00:00
1 2011-05-20 15:00:00 HR (Humedad Relativa) es igual a 100% y Ts <> Td 3.3 - 3.0 2023-11-21 01:00:00
1 2011-05-22 01:00:00 Ts debe ser mayor o igual a Td Ts=5.8 - Td=5.9 2023-11-21 01:00:00
1 2011-05-22 02:00:00 Ts debe ser mayor o igual a Td Ts=5.8 - Td=6.0 2023-11-21 01:00:00
1 2011-05-22 03:00:00 Ts debe ser mayor o igual a Td Ts=5.6 - Td=6.0 2023-11-21 01:00:00
1 2011-05-22 03:00:00 HR (Humedad Relativa) es igual a 100% y Ts <> Td 5.6 - 6.0 2023-11-21 01:00:00
1 2011-05-22 06:00:00 Ts debe ser mayor o igual a Td Ts=4.6 - Td=5.0 2023-11-21 01:00:00
1 2011-05-22 06:00:00 HR (Humedad Relativa) es igual a 100% y Ts <> Td 4.6 - 5.0 2023-11-21 01:00:00
1 2011-05-22 07:00:00 HR (Humedad Relativa) es igual a 100% y Ts <> Td 4.4 - 4.0 2023-11-21 01:00:00
1 2011-05-22 09:00:00 Ts debe ser mayor o igual a Td Ts=3.7 - Td=4.0 2023-11-21 01:00:00
1 2011-05-22 09:00:00 HR (Humedad Relativa) es igual a 100% y Ts <> Td 3.7 - 4.0 2023-11-21 01:00:00
1 2011-05-22 12:00:00 Ts debe ser mayor o igual a Td Ts=2.8 - Td=3.0 2023-11-21 01:00:00
1 2011-05-22 12:00:00 HR (Humedad Relativa) es igual a 100% y Ts <> Td 2.8 - 3.0 2023-11-21 01:00:00
1 2011-05-22 13:00:00 Ts debe ser mayor o igual a Td Ts=2.8 - Td=3.0 2023-11-21 01:00:00
1 2011-05-22 13:00:00 HR (Humedad Relativa) es igual a 100% y Ts <> Td 2.8 - 3.0 2023-11-21 01:00:00
1 2011-05-22 14:00:00 Ts debe ser mayor o igual a Td Ts=2.7 - Td=3.0 2023-11-21 01:00:00
1 2011-05-22 14:00:00 HR (Humedad Relativa) es igual a 100% y Ts <> Td 2.7 - 3.0 2023-11-21 01:00:00
1 2011-05-22 15:00:00 Ts debe ser mayor o igual a Td Ts=3.7 - Td=4.0 2023-11-21 01:00:00
1 2011-05-22 15:00:00 HR (Humedad Relativa) es igual a 100% y Ts <> Td 3.7 - 4.0 2023-11-21 01:00:00
1 2011-05-22 16:00:00 Ts debe ser mayor o igual a Td Ts=4.9 - Td=5.0 2023-11-21 01:00:00
1 2011-05-22 17:00:00 HR (Humedad Relativa) es igual a 100% y Ts <> Td 6.3 - 6.0 2023-11-21 01:00:00
1 2011-05-23 05:00:00 Ts debe ser mayor o igual a Td Ts=6.7 - Td=6.9 2023-11-21 01:00:00
1 2011-05-24 07:00:00 Ts debe ser mayor o igual a Td Ts=6.7 - Td=7.0 2023-11-21 01:00:00
1 2011-05-24 07:00:00 HR (Humedad Relativa) es igual a 100% y Ts <> Td 6.7 - 7.0 2023-11-21 01:00:00
1 2011-05-25 02:00:00 Ts debe ser mayor o igual a Td Ts=8.8 - Td=9.0 2023-11-21 01:00:00
1 2011-05-25 06:00:00 HR (Humedad Relativa) es igual a 100% y Ts <> Td 6.4 - 6.0 2023-11-21 01:00:00
1 2011-05-25 08:00:00 HR (Humedad Relativa) es igual a 100% y Ts <> Td 4.3 - 4.0 2023-11-21 01:00:00
1 2011-05-25 09:00:00 Ts debe ser mayor o igual a Td Ts=3.9 - Td=4.0 2023-11-21 01:00:00
1 2011-05-25 10:00:00 HR (Humedad Relativa) es igual a 100% y Ts <> Td 3.2 - 3.0 2023-11-21 01:00:00
1 2011-05-25 11:00:00 Ts debe ser mayor o igual a Td Ts=2.8 - Td=3.0 2023-11-21 01:00:00
1 2011-05-25 11:00:00 HR (Humedad Relativa) es igual a 100% y Ts <> Td 2.8 - 3.0 2023-11-21 01:00:00
1 2011-05-25 12:00:00 HR (Humedad Relativa) es igual a 100% y Ts <> Td 3.3 - 3.0 2023-11-21 01:00:00
1 2011-05-25 15:00:00 Ts debe ser mayor o igual a Td Ts=7.9 - Td=8.0 2023-11-21 01:00:00
1 2011-05-25 16:00:00 Ts debe ser mayor o igual a Td Ts=8.8 - Td=9.0 2023-11-21 01:00:00
1 2011-05-25 22:00:00 Ts debe ser mayor o igual a Td Ts=8.6 - Td=8.7 2023-11-21 01:00:00
1 2011-05-26 01:00:00 Ts debe ser mayor o igual a Td Ts=7.9 - Td=8.0 2023-11-21 01:00:00
1 2011-05-26 05:00:00 Ts debe ser mayor o igual a Td Ts=8.5 - Td=9.0 2023-11-21 01:00:00
1 2011-05-26 05:00:00 HR (Humedad Relativa) es igual a 100% y Ts <> Td 8.5 - 9.0 2023-11-21 01:00:00
1 2011-05-26 07:00:00 HR (Humedad Relativa) es igual a 100% y Ts <> Td 5.5 - 5.0 2023-11-21 01:00:00
1 2011-05-26 08:00:00 Ts debe ser mayor o igual a Td Ts=5.5 - Td=6.0 2023-11-21 01:00:00
1 2011-05-26 08:00:00 HR (Humedad Relativa) es igual a 100% y Ts <> Td 5.5 - 6.0 2023-11-21 01:00:00
1 2011-05-26 09:00:00 Ts debe ser mayor o igual a Td Ts=5.7 - Td=6.0 2023-11-21 01:00:00
1 2011-05-26 09:00:00 HR (Humedad Relativa) es igual a 100% y Ts <> Td 5.7 - 6.0 2023-11-21 01:00:00
1 2011-05-26 13:00:00 Ts debe ser mayor o igual a Td Ts=4.8 - Td=5.0 2023-11-21 01:00:00
1 2011-05-26 14:00:00 Ts debe ser mayor o igual a Td Ts=4.6 - Td=5.0 2023-11-21 01:00:00
1 2011-05-26 14:00:00 HR (Humedad Relativa) es igual a 100% y Ts <> Td 4.6 - 5.0 2023-11-21 01:00:00
1 2011-05-26 15:00:00 Ts debe ser mayor o igual a Td Ts=8.5 - Td=9.0 2023-11-21 01:00:00
1 2011-05-27 10:00:00 Ts debe ser mayor o igual a Td Ts=10.7 - Td=11.0 2023-11-21 01:00:00
1 2011-05-27 10:00:00 HR (Humedad Relativa) es igual a 100% y Ts <> Td 10.7 - 11.0 2023-11-21 01:00:00
1 2011-05-27 11:00:00 Ts debe ser mayor o igual a Td Ts=10.7 - Td=10.8 2023-11-21 01:00:00
1 2011-05-27 13:00:00 Ts debe ser mayor o igual a Td Ts=8.9 - Td=9.0 2023-11-21 01:00:00
1 2011-05-28 03:00:00 Ts debe ser mayor o igual a Td Ts=6.9 - Td=7.0 2023-11-21 01:00:00
1 2011-05-28 04:00:00 Ts debe ser mayor o igual a Td Ts=7.8 - Td=8.0 2023-11-21 01:00:00
1 2011-05-28 05:00:00 Ts debe ser mayor o igual a Td Ts=8.7 - Td=9.0 2023-11-21 01:00:00
1 2011-05-28 05:00:00 HR (Humedad Relativa) es igual a 100% y Ts <> Td 8.7 - 9.0 2023-11-21 01:00:00
1 2011-05-28 09:00:00 Ts debe ser mayor o igual a Td Ts=6.7 - Td=7.0 2023-11-21 01:00:00
1 2011-05-28 09:00:00 HR (Humedad Relativa) es igual a 100% y Ts <> Td 6.7 - 7.0 2023-11-21 01:00:00
1 2011-05-28 10:00:00 Ts debe ser mayor o igual a Td Ts=5.9 - Td=6.0 2023-11-21 01:00:00
1 2011-05-28 11:00:00 HR (Humedad Relativa) es igual a 100% y Ts <> Td 5.3 - 5.0 2023-11-21 01:00:00
1 2011-05-28 12:00:00 Ts debe ser mayor o igual a Td Ts=4.7 - Td=5.0 2023-11-21 01:00:00
1 2011-05-28 12:00:00 HR (Humedad Relativa) es igual a 100% y Ts <> Td 4.7 - 5.0 2023-11-21 01:00:00
1 2011-05-28 13:00:00 Ts debe ser mayor o igual a Td Ts=5.7 - Td=6.0 2023-11-21 01:00:00
1 2011-05-28 13:00:00 HR (Humedad Relativa) es igual a 100% y Ts <> Td 5.7 - 6.0 2023-11-21 01:00:00
1 2011-05-28 14:00:00 Ts debe ser mayor o igual a Td Ts=6.6 - Td=7.0 2023-11-21 01:00:00
1 2011-05-28 14:00:00 HR (Humedad Relativa) es igual a 100% y Ts <> Td 6.6 - 7.0 2023-11-21 01:00:00
1 2011-05-28 15:00:00 HR (Humedad Relativa) es igual a 100% y Ts <> Td 7.3 - 7.0 2023-11-21 01:00:00
1 2011-05-28 16:00:00 Ts debe ser mayor o igual a Td Ts=8.6 - Td=9.0 2023-11-21 01:00:00
1 2011-05-28 16:00:00 HR (Humedad Relativa) es igual a 100% y Ts <> Td 8.6 - 9.0 2023-11-21 01:00:00
1 2011-05-28 17:00:00 HR (Humedad Relativa) es igual a 100% y Ts <> Td 9.3 - 9.0 2023-11-21 01:00:00
1 2011-05-29 00:00:00 HR (Humedad Relativa) es igual a 100% y Ts <> Td 4.4 - 4.0 2023-11-21 01:00:00
1 2011-05-29 01:00:00 HR (Humedad Relativa) es igual a 100% y Ts <> Td 3.3 - 3.0 2023-11-21 01:00:00
1 2011-05-29 02:00:00 Ts debe ser mayor o igual a Td Ts=2.9 - Td=3.0 2023-11-21 01:00:00
1 2011-05-29 03:00:00 HR (Humedad Relativa) es igual a 100% y Ts <> Td 3.3 - 3.0 2023-11-21 01:00:00
1 2011-05-29 04:00:00 HR (Humedad Relativa) es igual a 100% y Ts <> Td 3.3 - 3.0 2023-11-21 01:00:00
1 2011-05-29 05:00:00 Ts debe ser mayor o igual a Td Ts=2.8 - Td=3.0 2023-11-21 01:00:00
1 2011-05-29 05:00:00 HR (Humedad Relativa) es igual a 100% y Ts <> Td 2.8 - 3.0 2023-11-21 01:00:00
1 2011-05-29 06:00:00 HR (Humedad Relativa) es igual a 100% y Ts <> Td 2.2 - 2.0 2023-11-21 01:00:00
1 2011-05-29 07:00:00 Ts debe ser mayor o igual a Td Ts=2.7 - Td=3.0 2023-11-21 01:00:00
1 2011-05-29 07:00:00 HR (Humedad Relativa) es igual a 100% y Ts <> Td 2.7 - 3.0 2023-11-21 01:00:00
1 2011-05-29 08:00:00 Ts debe ser mayor o igual a Td Ts=2.7 - Td=3.0 2023-11-21 01:00:00
1 2011-05-29 08:00:00 HR (Humedad Relativa) es igual a 100% y Ts <> Td 2.7 - 3.0 2023-11-21 01:00:00
1 2011-05-29 09:00:00 Ts debe ser mayor o igual a Td Ts=2.7 - Td=3.0 2023-11-21 01:00:00
1 2011-05-29 09:00:00 HR (Humedad Relativa) es igual a 100% y Ts <> Td 2.7 - 3.0 2023-11-21 01:00:00
1 2011-05-29 10:00:00 HR (Humedad Relativa) es igual a 100% y Ts <> Td 3.3 - 3.0 2023-11-21 01:00:00
1 2011-05-29 11:00:00 Ts debe ser mayor o igual a Td Ts=3.8 - Td=4.0 2023-11-21 01:00:00
1 2011-05-29 11:00:00 HR (Humedad Relativa) es igual a 100% y Ts <> Td 3.8 - 4.0 2023-11-21 01:00:00
1 2011-05-29 13:00:00 Ts debe ser mayor o igual a Td Ts=5.6 - Td=6.0 2023-11-21 01:00:00
1 2011-05-29 13:00:00 HR (Humedad Relativa) es igual a 100% y Ts <> Td 5.6 - 6.0 2023-11-21 01:00:00
1 2011-05-30 00:00:00 Ts debe ser mayor o igual a Td Ts=4.7 - Td=5.0 2023-11-21 01:00:00
1 2011-05-30 00:00:00 HR (Humedad Relativa) es igual a 100% y Ts <> Td 4.7 - 5.0 2023-11-21 01:00:00
1 2011-05-30 01:00:00 Ts debe ser mayor o igual a Td Ts=2.9 - Td=3.0 2023-11-21 01:00:00
1 2011-05-30 02:00:00 Ts debe ser mayor o igual a Td Ts=2.5 - Td=3.0 2023-11-21 01:00:00
1 2011-05-30 02:00:00 HR (Humedad Relativa) es igual a 100% y Ts <> Td 2.5 - 3.0 2023-11-21 01:00:00
1 2011-05-30 03:00:00 Ts debe ser mayor o igual a Td Ts=1.7 - Td=2.0 2023-11-21 01:00:00
1 2011-05-30 03:00:00 HR (Humedad Relativa) es igual a 100% y Ts <> Td 1.7 - 2.0 2023-11-21 01:00:00
1 2011-05-30 04:00:00 Ts debe ser mayor o igual a Td Ts=0.6 - Td=1.0 2023-11-21 01:00:00
1 2011-05-30 04:00:00 HR (Humedad Relativa) es igual a 100% y Ts <> Td 0.6 - 1.0 2023-11-21 01:00:00
1 2011-05-30 05:00:00 Ts debe ser mayor o igual a Td Ts=-0.2 - Td=0.0 2023-11-21 01:00:00
1 2011-05-30 05:00:00 HR (Humedad Relativa) es igual a 100% y Ts <> Td -0.2 - 0.0 2023-11-21 01:00:00
1 2011-05-30 06:00:00 HR (Humedad Relativa) es igual a 100% y Ts <> Td 0.2 - 0.0 2023-11-21 01:00:00
1 2011-05-30 07:00:00 HR (Humedad Relativa) es igual a 100% y Ts <> Td -0.7 - -1.0 2023-11-21 01:00:00
1 2011-05-30 08:00:00 HR (Humedad Relativa) es igual a 100% y Ts <> Td -0.6 - -1.0 2023-11-21 01:00:00
1 2011-05-30 10:00:00 Ts debe ser mayor o igual a Td Ts=-1.4 - Td=-1.0 2023-11-21 01:00:00
1 2011-05-30 10:00:00 HR (Humedad Relativa) es igual a 100% y Ts <> Td -1.4 - -1.0 2023-11-21 01:00:00
1 2011-05-30 11:00:00 HR (Humedad Relativa) es igual a 100% y Ts <> Td -1.7 - -2.0 2023-11-21 01:00:00
1 2011-05-30 12:00:00 HR (Humedad Relativa) es igual a 100% y Ts <> Td -1.8 - -2.0 2023-11-21 01:00:00
1 2011-05-30 13:00:00 HR (Humedad Relativa) es igual a 100% y Ts <> Td -1.6 - -2.0 2023-11-21 01:00:00
1 2011-05-31 05:00:00 HR (Humedad Relativa) es igual a 100% y Ts <> Td 4.3 - 4.0 2023-11-21 01:00:00
1 2011-05-31 07:00:00 Ts debe ser mayor o igual a Td Ts=3.9 - Td=4.0 2023-11-21 01:00:00
1 2011-05-31 08:00:00 Ts debe ser mayor o igual a Td Ts=3.6 - Td=4.0 2023-11-21 01:00:00
1 2011-05-31 08:00:00 HR (Humedad Relativa) es igual a 100% y Ts <> Td 3.6 - 4.0 2023-11-21 01:00:00
1 2011-05-31 09:00:00 HR (Humedad Relativa) es igual a 100% y Ts <> Td 3.4 - 3.0 2023-11-21 01:00:00
1 2011-05-31 11:00:00 Ts debe ser mayor o igual a Td Ts=2.8 - Td=3.0 2023-11-21 01:00:00
1 2011-05-31 11:00:00 HR (Humedad Relativa) es igual a 100% y Ts <> Td 2.8 - 3.0 2023-11-21 01:00:00
1 2011-05-31 12:00:00 HR (Humedad Relativa) es igual a 100% y Ts <> Td 2.4 - 2.0 2023-11-21 01:00:00
1 2011-05-31 13:00:00 HR (Humedad Relativa) es igual a 100% y Ts <> Td 2.3 - 2.0 2023-11-21 01:00:00
1 2011-05-31 14:00:00 Ts debe ser mayor o igual a Td Ts=2.7 - Td=3.0 2023-11-21 01:00:00
1 2011-05-31 14:00:00 HR (Humedad Relativa) es igual a 100% y Ts <> Td 2.7 - 3.0 2023-11-21 01:00:00
1 2011-05-31 15:00:00 HR (Humedad Relativa) es igual a 100% y Ts <> Td 3.5 - 3.0 2023-11-21 01:00:00
1 2011-05-31 16:00:00 Ts debe ser mayor o igual a Td Ts=4.5 - Td=5.0 2023-11-21 01:00:00
1 2011-05-31 16:00:00 HR (Humedad Relativa) es igual a 100% y Ts <> Td 4.5 - 5.0 2023-11-21 01:00:00
1 2011-05-31 17:00:00 Ts debe ser mayor o igual a Td Ts=7.5 - Td=7.9 2023-11-21 01:00:00
1 2011-06-01 08:00:00 Ts debe ser mayor o igual a Td Ts=5.6 - Td=6.0 2023-11-21 01:00:00
1 2011-06-01 08:00:00 HR (Humedad Relativa) es igual a 100% y Ts <> Td 5.6 - 6.0 2023-11-21 01:00:00
1 2011-06-01 09:00:00 Ts debe ser mayor o igual a Td Ts=6.8 - Td=7.0 2023-11-21 01:00:00
1 2011-06-01 10:00:00 HR (Humedad Relativa) es igual a 100% y Ts <> Td 8.4 - 8.0 2023-11-21 01:00:00
1 2011-06-01 11:00:00 Ts debe ser mayor o igual a Td Ts=8.6 - Td=9.0 2023-11-21 01:00:00
1 2011-06-01 11:00:00 HR (Humedad Relativa) es igual a 100% y Ts <> Td 8.6 - 9.0 2023-11-21 01:00:00
1 2011-06-01 12:00:00 Ts debe ser mayor o igual a Td Ts=8.6 - Td=9.0 2023-11-21 01:00:00
1 2011-06-01 12:00:00 HR (Humedad Relativa) es igual a 100% y Ts <> Td 8.6 - 9.0 2023-11-21 01:00:00
1 2011-06-01 13:00:00 Ts debe ser mayor o igual a Td Ts=8.7 - Td=9.0 2023-11-21 01:00:00
1 2011-06-01 13:00:00 HR (Humedad Relativa) es igual a 100% y Ts <> Td 8.7 - 9.0 2023-11-21 01:00:00
1 2011-06-01 23:00:00 Ts debe ser mayor o igual a Td Ts=8.7 - Td=9.0 2023-11-21 01:00:00
1 2011-06-01 23:00:00 HR (Humedad Relativa) es igual a 100% y Ts <> Td 8.7 - 9.0 2023-11-21 01:00:00
1 2011-06-02 00:00:00 HR (Humedad Relativa) es igual a 100% y Ts <> Td 8.3 - 8.0 2023-11-21 01:00:00
1 2011-06-02 02:00:00 Ts debe ser mayor o igual a Td Ts=7.7 - Td=8.0 2023-11-21 01:00:00
1 2011-06-02 02:00:00 HR (Humedad Relativa) es igual a 100% y Ts <> Td 7.7 - 8.0 2023-11-21 01:00:00
1 2011-06-02 03:00:00 Ts debe ser mayor o igual a Td Ts=7.7 - Td=8.0 2023-11-21 01:00:00
1 2011-06-02 03:00:00 HR (Humedad Relativa) es igual a 100% y Ts <> Td 7.7 - 8.0 2023-11-21 01:00:00
1 2011-06-02 04:00:00 HR (Humedad Relativa) es igual a 100% y Ts <> Td 7.4 - 7.0 2023-11-21 01:00:00
1 2011-06-02 05:00:00 HR (Humedad Relativa) es igual a 100% y Ts <> Td 7.3 - 7.0 2023-11-21 01:00:00
1 2011-06-02 06:00:00 HR (Humedad Relativa) es igual a 100% y Ts <> Td 7.4 - 7.0 2023-11-21 01:00:00
1 2011-06-02 07:00:00 HR (Humedad Relativa) es igual a 100% y Ts <> Td 7.5 - 7.0 2023-11-21 01:00:00
1 2011-06-02 08:00:00 Ts debe ser mayor o igual a Td Ts=7.6 - Td=8.0 2023-11-21 01:00:00
1 2011-06-02 08:00:00 HR (Humedad Relativa) es igual a 100% y Ts <> Td 7.6 - 8.0 2023-11-21 01:00:00
1 2011-06-02 09:00:00 Ts debe ser mayor o igual a Td Ts=7.6 - Td=8.0 2023-11-21 01:00:00
1 2011-06-02 09:00:00 HR (Humedad Relativa) es igual a 100% y Ts <> Td 7.6 - 8.0 2023-11-21 01:00:00
1 2011-06-02 10:00:00 Ts debe ser mayor o igual a Td Ts=7.7 - Td=8.0 2023-11-21 01:00:00
1 2011-06-02 10:00:00 HR (Humedad Relativa) es igual a 100% y Ts <> Td 7.7 - 8.0 2023-11-21 01:00:00
1 2011-06-02 11:00:00 Ts debe ser mayor o igual a Td Ts=7.7 - Td=8.0 2023-11-21 01:00:00
1 2011-06-02 11:00:00 HR (Humedad Relativa) es igual a 100% y Ts <> Td 7.7 - 8.0 2023-11-21 01:00:00
1 2011-06-02 12:00:00 Ts debe ser mayor o igual a Td Ts=7.7 - Td=8.0 2023-11-21 01:00:00
1 2011-06-02 12:00:00 HR (Humedad Relativa) es igual a 100% y Ts <> Td 7.7 - 8.0 2023-11-21 01:00:00
1 2011-06-02 14:00:00 HR (Humedad Relativa) es igual a 100% y Ts <> Td 8.3 - 8.0 2023-11-21 01:00:00
1 2011-06-03 00:00:00 HR (Humedad Relativa) es igual a 100% y Ts <> Td 5.4 - 5.0 2023-11-21 01:00:00
1 2011-06-03 01:00:00 HR (Humedad Relativa) es igual a 100% y Ts <> Td 4.4 - 4.0 2023-11-21 01:00:00
1 2011-06-03 03:00:00 Ts debe ser mayor o igual a Td Ts=2.9 - Td=3.0 2023-11-21 01:00:00
1 2011-06-03 04:00:00 HR (Humedad Relativa) es igual a 100% y Ts <> Td 2.4 - 2.0 2023-11-21 01:00:00
1 2011-06-03 05:00:00 HR (Humedad Relativa) es igual a 100% y Ts <> Td 2.3 - 2.0 2023-11-21 01:00:00
1 2011-06-03 06:00:00 HR (Humedad Relativa) es igual a 100% y Ts <> Td 2.2 - 2.0 2023-11-21 01:00:00
1 2011-06-03 07:00:00 HR (Humedad Relativa) es igual a 100% y Ts <> Td 2.4 - 2.0 2023-11-21 01:00:00
1 2011-06-03 08:00:00 HR (Humedad Relativa) es igual a 100% y Ts <> Td 2.3 - 2.0 2023-11-21 01:00:00
1 2011-06-03 09:00:00 Ts debe ser mayor o igual a Td Ts=1.9 - Td=2.0 2023-11-21 01:00:00
1 2011-06-03 10:00:00 HR (Humedad Relativa) es igual a 100% y Ts <> Td 2.2 - 2.0 2023-11-21 01:00:00
1 2011-06-03 11:00:00 HR (Humedad Relativa) es igual a 100% y Ts <> Td 2.4 - 2.0 2023-11-21 01:00:00
1 2011-06-03 12:00:00 Ts debe ser mayor o igual a Td Ts=2.8 - Td=3.0 2023-11-21 01:00:00
1 2011-06-03 12:00:00 HR (Humedad Relativa) es igual a 100% y Ts <> Td 2.8 - 3.0 2023-11-21 01:00:00
1 2011-06-03 13:00:00 Ts debe ser mayor o igual a Td Ts=2.9 - Td=3.0 2023-11-21 01:00:00
1 2011-06-03 14:00:00 HR (Humedad Relativa) es igual a 100% y Ts <> Td 4.4 - 4.0 2023-11-21 01:00:00
1 2011-06-03 15:00:00 HR (Humedad Relativa) es igual a 100% y Ts <> Td 6.4 - 6.0 2023-11-21 01:00:00
1 2011-06-03 16:00:00 HR (Humedad Relativa) es igual a 100% y Ts <> Td 8.3 - 8.0 2023-11-21 01:00:00
1 2011-06-04 00:00:00 Ts debe ser mayor o igual a Td Ts=5.8 - Td=6.0 2023-11-21 01:00:00
1 2011-06-04 01:00:00 Ts debe ser mayor o igual a Td Ts=4.8 - Td=5.0 2023-11-21 01:00:00
1 2011-06-04 02:00:00 Ts debe ser mayor o igual a Td Ts=3.7 - Td=4.0 2023-11-21 01:00:00
1 2011-06-04 02:00:00 HR (Humedad Relativa) es igual a 100% y Ts <> Td 3.7 - 4.0 2023-11-21 01:00:00
1 2011-06-04 03:00:00 Ts debe ser mayor o igual a Td Ts=3.5 - Td=4.0 2023-11-21 01:00:00
1 2011-06-04 03:00:00 HR (Humedad Relativa) es igual a 100% y Ts <> Td 3.5 - 4.0 2023-11-21 01:00:00
1 2011-06-04 04:00:00 Ts debe ser mayor o igual a Td Ts=2.8 - Td=3.0 2023-11-21 01:00:00
1 2011-06-04 04:00:00 HR (Humedad Relativa) es igual a 100% y Ts <> Td 2.8 - 3.0 2023-11-21 01:00:00
1 2011-06-04 05:00:00 HR (Humedad Relativa) es igual a 100% y Ts <> Td 3.2 - 3.0 2023-11-21 01:00:00
1 2011-06-04 06:00:00 HR (Humedad Relativa) es igual a 100% y Ts <> Td 3.2 - 3.0 2023-11-21 01:00:00
1 2011-06-04 08:00:00 Ts debe ser mayor o igual a Td Ts=2.7 - Td=3.0 2023-11-21 01:00:00
1 2011-06-04 08:00:00 HR (Humedad Relativa) es igual a 100% y Ts <> Td 2.7 - 3.0 2023-11-21 01:00:00
1 2011-06-04 09:00:00 HR (Humedad Relativa) es igual a 100% y Ts <> Td 2.2 - 2.0 2023-11-21 01:00:00
1 2011-06-04 10:00:00 Ts debe ser mayor o igual a Td Ts=1.8 - Td=2.0 2023-11-21 01:00:00
1 2011-06-04 10:00:00 HR (Humedad Relativa) es igual a 100% y Ts <> Td 1.8 - 2.0 2023-11-21 01:00:00
1 2011-06-04 12:00:00 HR (Humedad Relativa) es igual a 100% y Ts <> Td 2.2 - 2.0 2023-11-21 01:00:00
1 2011-06-04 23:00:00 Ts debe ser mayor o igual a Td Ts=10.6 - Td=10.8 2023-11-21 01:00:00
1 2011-06-05 00:00:00 Ts debe ser mayor o igual a Td Ts=10.5 - Td=10.7 2023-11-21 01:00:00
1 2011-06-05 11:00:00 Ts debe ser mayor o igual a Td Ts=9.6 - Td=9.8 2023-11-21 01:00:00
1 2011-06-05 12:00:00 Ts debe ser mayor o igual a Td Ts=9.6 - Td=9.8 2023-11-21 01:00:00
1 2011-06-05 23:00:00 HR (Humedad Relativa) es igual a 100% y Ts <> Td 7.4 - 7.0 2023-11-21 01:00:00
1 2011-06-06 03:00:00 Ts debe ser mayor o igual a Td Ts=2.9 - Td=3.0 2023-11-21 01:00:00
1 2011-06-06 04:00:00 HR (Humedad Relativa) es igual a 100% y Ts <> Td 4.3 - 4.0 2023-11-21 01:00:00
1 2011-06-06 05:00:00 Ts debe ser mayor o igual a Td Ts=2.8 - Td=3.0 2023-11-21 01:00:00
1 2011-06-06 05:00:00 HR (Humedad Relativa) es igual a 100% y Ts <> Td 2.8 - 3.0 2023-11-21 01:00:00
1 2011-06-06 06:00:00 Ts debe ser mayor o igual a Td Ts=1.8 - Td=2.0 2023-11-21 01:00:00
1 2011-06-06 06:00:00 HR (Humedad Relativa) es igual a 100% y Ts <> Td 1.8 - 2.0 2023-11-21 01:00:00
1 2011-06-06 07:00:00 Ts debe ser mayor o igual a Td Ts=1.8 - Td=2.0 2023-11-21 01:00:00
1 2011-06-06 07:00:00 HR (Humedad Relativa) es igual a 100% y Ts <> Td 1.8 - 2.0 2023-11-21 01:00:00
1 2011-06-06 09:00:00 Ts debe ser mayor o igual a Td Ts=1.8 - Td=2.0 2023-11-21 01:00:00
1 2011-06-06 09:00:00 HR (Humedad Relativa) es igual a 100% y Ts <> Td 1.8 - 2.0 2023-11-21 01:00:00
1 2011-06-06 10:00:00 Ts debe ser mayor o igual a Td Ts=2.8 - Td=3.0 2023-11-21 01:00:00
1 2011-06-06 10:00:00 HR (Humedad Relativa) es igual a 100% y Ts <> Td 2.8 - 3.0 2023-11-21 01:00:00
1 2011-06-06 11:00:00 HR (Humedad Relativa) es igual a 100% y Ts <> Td 3.2 - 3.0 2023-11-21 01:00:00
1 2011-06-06 12:00:00 Ts debe ser mayor o igual a Td Ts=3.9 - Td=4.0 2023-11-21 01:00:00
1 2011-06-06 13:00:00 Ts debe ser mayor o igual a Td Ts=3.9 - Td=4.0 2023-11-21 01:00:00
1 2011-06-06 14:00:00 HR (Humedad Relativa) es igual a 100% y Ts <> Td 6.4 - 6.0 2023-11-21 01:00:00
1 2011-06-06 16:00:00 HR (Humedad Relativa) es igual a 100% y Ts <> Td 8.3 - 8.0 2023-11-21 01:00:00
1 2011-06-09 04:00:00 HR (Humedad Relativa) es igual a 100% y Ts <> Td 7.4 - 7.0 2023-11-21 01:00:00
1 2011-06-09 05:00:00 Ts debe ser mayor o igual a Td Ts=7.7 - Td=7.9 2023-11-21 01:00:00
1 2011-06-09 11:00:00 Ts debe ser mayor o igual a Td Ts=8.7 - Td=8.8 2023-11-21 01:00:00
1 2011-06-09 16:00:00 Ts debe ser mayor o igual a Td Ts=10.7 - Td=11.0 2023-11-21 01:00:00
1 2011-06-09 16:00:00 HR (Humedad Relativa) es igual a 100% y Ts <> Td 10.7 - 11.0 2023-11-21 01:00:00
1 2011-06-09 17:00:00 Ts debe ser mayor o igual a Td Ts=11.6 - Td=12.0 2023-11-21 01:00:00
1 2011-06-09 17:00:00 HR (Humedad Relativa) es igual a 100% y Ts <> Td 11.6 - 12.0 2023-11-21 01:00:00
1 2011-06-10 10:00:00 Ts debe ser mayor o igual a Td Ts=11.8 - Td=12.0 2023-11-21 01:00:00
1 2011-06-10 11:00:00 HR (Humedad Relativa) es igual a 100% y Ts <> Td 11.4 - 11.0 2023-11-21 01:00:00
1 2011-06-13 06:00:00 HR (Humedad Relativa) es igual a 100% y Ts <> Td 3.2 - 3.0 2023-11-21 01:00:00
1 2011-06-13 07:00:00 Ts debe ser mayor o igual a Td Ts=2.6 - Td=3.0 2023-11-21 01:00:00
1 2011-06-13 07:00:00 HR (Humedad Relativa) es igual a 100% y Ts <> Td 2.6 - 3.0 2023-11-21 01:00:00
1 2011-06-13 09:00:00 Ts debe ser mayor o igual a Td Ts=-0.2 - Td=0.0 2023-11-21 01:00:00
1 2011-06-13 09:00:00 HR (Humedad Relativa) es igual a 100% y Ts <> Td -0.2 - 0.0 2023-11-21 01:00:00
1 2011-06-13 10:00:00 Ts debe ser mayor o igual a Td Ts=-0.5 - Td=0.0 2023-11-21 01:00:00
1 2011-06-13 10:00:00 HR (Humedad Relativa) es igual a 100% y Ts <> Td -0.5 - 0.0 2023-11-21 01:00:00
1 2011-06-13 11:00:00 Ts debe ser mayor o igual a Td Ts=-0.3 - Td=0.0 2023-11-21 01:00:00
1 2011-06-13 11:00:00 HR (Humedad Relativa) es igual a 100% y Ts <> Td -0.3 - 0.0 2023-11-21 01:00:00
1 2011-06-13 12:00:00 HR (Humedad Relativa) es igual a 100% y Ts <> Td -1.6 - -2.0 2023-11-21 01:00:00
1 2011-06-13 13:00:00 Ts debe ser mayor o igual a Td Ts=-1.1 - Td=-1.0 2023-11-21 01:00:00
1 2011-06-14 02:00:00 Ts debe ser mayor o igual a Td Ts=2.9 - Td=3.0 2023-11-21 01:00:00
1 2011-06-14 03:00:00 Ts debe ser mayor o igual a Td Ts=2.6 - Td=3.0 2023-11-21 01:00:00
1 2011-06-14 03:00:00 HR (Humedad Relativa) es igual a 100% y Ts <> Td 2.6 - 3.0 2023-11-21 01:00:00
1 2011-06-14 04:00:00 Ts debe ser mayor o igual a Td Ts=1.9 - Td=2.0 2023-11-21 01:00:00
1 2011-06-14 06:00:00 HR (Humedad Relativa) es igual a 100% y Ts <> Td 1.3 - 1.0 2023-11-21 01:00:00
1 2011-06-14 07:00:00 HR (Humedad Relativa) es igual a 100% y Ts <> Td 2.3 - 2.0 2023-11-21 01:00:00
1 2011-06-14 08:00:00 Ts debe ser mayor o igual a Td Ts=1.9 - Td=2.0 2023-11-21 01:00:00
1 2011-06-14 09:00:00 HR (Humedad Relativa) es igual a 100% y Ts <> Td 2.3 - 2.0 2023-11-21 01:00:00
1 2011-06-14 10:00:00 HR (Humedad Relativa) es igual a 100% y Ts <> Td 2.5 - 2.0 2023-11-21 01:00:00
1 2011-06-14 21:00:00 Ts debe ser mayor o igual a Td Ts=8.5 - Td=8.8 2023-11-21 01:00:00
1 2011-06-15 00:00:00 HR (Humedad Relativa) es igual a 100% y Ts <> Td 8.3 - 8.0 2023-11-21 01:00:00
1 2011-06-15 01:00:00 HR (Humedad Relativa) es igual a 100% y Ts <> Td 8.3 - 8.0 2023-11-21 01:00:00
1 2011-06-15 04:00:00 Ts debe ser mayor o igual a Td Ts=7.9 - Td=8.0 2023-11-21 01:00:00
1 2011-06-15 05:00:00 Ts debe ser mayor o igual a Td Ts=7.8 - Td=8.0 2023-11-21 01:00:00
1 2011-06-15 06:00:00 Ts debe ser mayor o igual a Td Ts=7.6 - Td=8.0 2023-11-21 01:00:00
1 2011-06-15 06:00:00 HR (Humedad Relativa) es igual a 100% y Ts <> Td 7.6 - 8.0 2023-11-21 01:00:00
1 2011-06-15 07:00:00 Ts debe ser mayor o igual a Td Ts=7.5 - Td=8.0 2023-11-21 01:00:00
1 2011-06-15 07:00:00 HR (Humedad Relativa) es igual a 100% y Ts <> Td 7.5 - 8.0 2023-11-21 01:00:00
1 2011-06-15 08:00:00 HR (Humedad Relativa) es igual a 100% y Ts <> Td 7.5 - 7.0 2023-11-21 01:00:00
1 2011-06-15 12:00:00 Ts debe ser mayor o igual a Td Ts=6.9 - Td=7.0 2023-11-21 01:00:00
1 2011-06-15 13:00:00 Ts debe ser mayor o igual a Td Ts=6.8 - Td=7.0 2023-11-21 01:00:00
1 2011-06-15 14:00:00 Ts debe ser mayor o igual a Td Ts=6.6 - Td=7.0 2023-11-21 01:00:00
1 2011-06-15 14:00:00 HR (Humedad Relativa) es igual a 100% y Ts <> Td 6.6 - 7.0 2023-11-21 01:00:00
1 2011-06-16 04:00:00 Ts debe ser mayor o igual a Td Ts=6.9 - Td=7.0 2023-11-21 01:00:00
1 2011-06-16 05:00:00 Ts debe ser mayor o igual a Td Ts=6.8 - Td=7.0 2023-11-21 01:00:00
1 2011-06-16 06:00:00 Ts debe ser mayor o igual a Td Ts=6.8 - Td=7.0 2023-11-21 01:00:00
1 2011-06-16 07:00:00 Ts debe ser mayor o igual a Td Ts=6.7 - Td=7.0 2023-11-21 01:00:00
1 2011-06-16 07:00:00 HR (Humedad Relativa) es igual a 100% y Ts <> Td 6.7 - 7.0 2023-11-21 01:00:00
1 2011-06-16 08:00:00 Ts debe ser mayor o igual a Td Ts=6.9 - Td=7.0 2023-11-21 01:00:00
1 2011-06-16 09:00:00 Ts debe ser mayor o igual a Td Ts=6.9 - Td=7.0 2023-11-21 01:00:00
1 2011-06-16 10:00:00 Ts debe ser mayor o igual a Td Ts=6.9 - Td=7.0 2023-11-21 01:00:00
1 2011-06-16 11:00:00 Ts debe ser mayor o igual a Td Ts=6.8 - Td=7.0 2023-11-21 01:00:00
1 2011-06-16 12:00:00 Ts debe ser mayor o igual a Td Ts=6.9 - Td=7.0 2023-11-21 01:00:00
1 2011-06-16 13:00:00 Ts debe ser mayor o igual a Td Ts=6.9 - Td=7.0 2023-11-21 01:00:00
1 2011-06-16 15:00:00 Ts debe ser mayor o igual a Td Ts=7.5 - Td=7.7 2023-11-21 01:00:00
1 2011-06-17 21:00:00 Ts debe ser mayor o igual a Td Ts=8.6 - Td=8.7 2023-11-21 01:00:00
1 2011-06-18 05:00:00 Ts debe ser mayor o igual a Td Ts=8.5 - Td=8.7 2023-11-21 01:00:00
1 2011-06-19 03:00:00 Ts debe ser mayor o igual a Td Ts=7.6 - Td=7.7 2023-11-21 01:00:00
1 2011-06-19 23:00:00 HR (Humedad Relativa) es igual a 100% y Ts <> Td 5.3 - 5.0 2023-11-21 01:00:00
1 2011-06-20 00:00:00 Ts debe ser mayor o igual a Td Ts=4.7 - Td=5.0 2023-11-21 01:00:00
1 2011-06-20 00:00:00 HR (Humedad Relativa) es igual a 100% y Ts <> Td 4.7 - 5.0 2023-11-21 01:00:00
1 2011-06-20 01:00:00 Ts debe ser mayor o igual a Td Ts=4.8 - Td=5.0 2023-11-21 01:00:00
1 2011-06-20 02:00:00 Ts debe ser mayor o igual a Td Ts=5.5 - Td=6.0 2023-11-21 01:00:00
1 2011-06-20 02:00:00 HR (Humedad Relativa) es igual a 100% y Ts <> Td 5.5 - 6.0 2023-11-21 01:00:00
1 2011-06-20 03:00:00 Ts debe ser mayor o igual a Td Ts=5.8 - Td=6.0 2023-11-21 01:00:00
1 2011-06-20 05:00:00 Ts debe ser mayor o igual a Td Ts=6.6 - Td=7.0 2023-11-21 01:00:00
1 2011-06-20 05:00:00 HR (Humedad Relativa) es igual a 100% y Ts <> Td 6.6 - 7.0 2023-11-21 01:00:00
1 2011-06-20 07:00:00 HR (Humedad Relativa) es igual a 100% y Ts <> Td 5.3 - 5.0 2023-11-21 01:00:00
1 2011-06-20 09:00:00 Ts debe ser mayor o igual a Td Ts=3.7 - Td=4.0 2023-11-21 01:00:00
1 2011-06-20 10:00:00 Ts debe ser mayor o igual a Td Ts=3.7 - Td=4.0 2023-11-21 01:00:00
1 2011-06-20 11:00:00 HR (Humedad Relativa) es igual a 100% y Ts <> Td 3.2 - 3.0 2023-11-21 01:00:00
1 2011-06-20 12:00:00 HR (Humedad Relativa) es igual a 100% y Ts <> Td 4.4 - 4.0 2023-11-21 01:00:00
1 2011-06-20 13:00:00 Ts debe ser mayor o igual a Td Ts=3.6 - Td=4.0 2023-11-21 01:00:00
1 2011-06-20 13:00:00 HR (Humedad Relativa) es igual a 100% y Ts <> Td 3.6 - 4.0 2023-11-21 01:00:00
1 2011-06-21 00:00:00 Ts debe ser mayor o igual a Td Ts=5.9 - Td=6.0 2023-11-21 01:00:00
1 2011-06-21 01:00:00 HR (Humedad Relativa) es igual a 100% y Ts <> Td 5.3 - 5.0 2023-11-21 01:00:00
1 2011-06-21 02:00:00 HR (Humedad Relativa) es igual a 100% y Ts <> Td 5.4 - 5.0 2023-11-21 01:00:00
1 2011-06-21 03:00:00 HR (Humedad Relativa) es igual a 100% y Ts <> Td 6.4 - 6.0 2023-11-21 01:00:00
1 2011-06-21 05:00:00 Ts debe ser mayor o igual a Td Ts=5.8 - Td=6.0 2023-11-21 01:00:00
1 2011-06-21 06:00:00 Ts debe ser mayor o igual a Td Ts=5.6 - Td=6.0 2023-11-21 01:00:00
1 2011-06-21 06:00:00 HR (Humedad Relativa) es igual a 100% y Ts <> Td 5.6 - 6.0 2023-11-21 01:00:00
1 2011-06-21 07:00:00 HR (Humedad Relativa) es igual a 100% y Ts <> Td 5.5 - 5.0 2023-11-21 01:00:00
1 2011-06-21 08:00:00 Ts debe ser mayor o igual a Td Ts=5.5 - Td=6.0 2023-11-21 01:00:00
1 2011-06-21 08:00:00 HR (Humedad Relativa) es igual a 100% y Ts <> Td 5.5 - 6.0 2023-11-21 01:00:00
1 2011-06-21 09:00:00 HR (Humedad Relativa) es igual a 100% y Ts <> Td 5.4 - 5.0 2023-11-21 01:00:00
1 2011-06-21 10:00:00 HR (Humedad Relativa) es igual a 100% y Ts <> Td 5.4 - 5.0 2023-11-21 01:00:00
1 2011-06-21 11:00:00 Ts debe ser mayor o igual a Td Ts=5.7 - Td=6.0 2023-11-21 01:00:00
1 2011-06-21 11:00:00 HR (Humedad Relativa) es igual a 100% y Ts <> Td 5.7 - 6.0 2023-11-21 01:00:00
1 2011-06-22 05:00:00 HR (Humedad Relativa) es igual a 100% y Ts <> Td 2.3 - 2.0 2023-11-21 01:00:00
1 2011-06-22 06:00:00 HR (Humedad Relativa) es igual a 100% y Ts <> Td 1.4 - 1.0 2023-11-21 01:00:00
1 2011-06-22 07:00:00 Ts debe ser mayor o igual a Td Ts=0.9 - Td=1.0 2023-11-21 01:00:00
1 2011-06-22 08:00:00 HR (Humedad Relativa) es igual a 100% y Ts <> Td 1.4 - 1.0 2023-11-21 01:00:00
1 2011-06-22 09:00:00 Ts debe ser mayor o igual a Td Ts=-0.1 - Td=0.0 2023-11-21 01:00:00
1 2011-06-22 11:00:00 HR (Humedad Relativa) es igual a 100% y Ts <> Td -0.7 - -1.0 2023-11-21 01:00:00
1 2011-06-22 12:00:00 HR (Humedad Relativa) es igual a 100% y Ts <> Td -0.6 - -1.0 2023-11-21 01:00:00
1 2011-06-22 13:00:00 HR (Humedad Relativa) es igual a 100% y Ts <> Td 0.4 - 0.0 2023-11-21 01:00:00
1 2011-06-22 15:00:00 HR (Humedad Relativa) es igual a 100% y Ts <> Td 2.5 - 2.0 2023-11-21 01:00:00
1 2011-06-23 09:00:00 Ts debe ser mayor o igual a Td Ts=5.6 - Td=5.9 2023-11-21 01:00:00
1 2011-06-24 00:00:00 Ts debe ser mayor o igual a Td Ts=4.6 - Td=5.0 2023-11-21 01:00:00
1 2011-06-24 00:00:00 HR (Humedad Relativa) es igual a 100% y Ts <> Td 4.6 - 5.0 2023-11-21 01:00:00
1 2011-06-24 01:00:00 Ts debe ser mayor o igual a Td Ts=4.5 - Td=5.0 2023-11-21 01:00:00
1 2011-06-24 01:00:00 HR (Humedad Relativa) es igual a 100% y Ts <> Td 4.5 - 5.0 2023-11-21 01:00:00
1 2011-06-24 02:00:00 HR (Humedad Relativa) es igual a 100% y Ts <> Td 4.4 - 4.0 2023-11-21 01:00:00
1 2011-06-24 07:00:00 Ts debe ser mayor o igual a Td Ts=1.8 - Td=1.9 2023-11-21 01:00:00
1 2011-06-25 04:00:00 Ts debe ser mayor o igual a Td Ts=-0.4 - Td=0.0 2023-11-21 01:00:00
1 2011-06-25 04:00:00 HR (Humedad Relativa) es igual a 100% y Ts <> Td -0.4 - 0.0 2023-11-21 01:00:00
1 2011-06-25 05:00:00 HR (Humedad Relativa) es igual a 100% y Ts <> Td 0.2 - 0.0 2023-11-21 01:00:00
1 2011-06-25 06:00:00 Ts debe ser mayor o igual a Td Ts=-0.4 - Td=-0.1 2023-11-21 01:00:00
1 2011-06-25 07:00:00 HR (Humedad Relativa) es igual a 100% y Ts <> Td -0.7 - -1.0 2023-11-21 01:00:00
1 2011-06-25 08:00:00 HR (Humedad Relativa) es igual a 100% y Ts <> Td -0.7 - -1.0 2023-11-21 01:00:00
1 2011-06-25 09:00:00 Ts debe ser mayor o igual a Td Ts=-0.4 - Td=0.0 2023-11-21 01:00:00
1 2011-06-25 09:00:00 HR (Humedad Relativa) es igual a 100% y Ts <> Td -0.4 - 0.0 2023-11-21 01:00:00
1 2011-06-25 10:00:00 Ts debe ser mayor o igual a Td Ts=-1.4 - Td=-1.0 2023-11-21 01:00:00
1 2011-06-25 10:00:00 HR (Humedad Relativa) es igual a 100% y Ts <> Td -1.4 - -1.0 2023-11-21 01:00:00
1 2011-06-25 11:00:00 HR (Humedad Relativa) es igual a 100% y Ts <> Td -1.6 - -2.0 2023-11-21 01:00:00
1 2011-06-25 12:00:00 Ts debe ser mayor o igual a Td Ts=-1.1 - Td=-1.0 2023-11-21 01:00:00
1 2011-06-26 00:00:00 Ts debe ser mayor o igual a Td Ts=0.7 - Td=1.0 2023-11-21 01:00:00
1 2011-06-26 01:00:00 Ts debe ser mayor o igual a Td Ts=-0.3 - Td=0.0 2023-11-21 01:00:00
1 2011-06-26 01:00:00 HR (Humedad Relativa) es igual a 100% y Ts <> Td -0.3 - 0.0 2023-11-21 01:00:00
1 2011-06-26 02:00:00 HR (Humedad Relativa) es igual a 100% y Ts <> Td -0.6 - -1.0 2023-11-21 01:00:00
1 2011-06-26 03:00:00 HR (Humedad Relativa) es igual a 100% y Ts <> Td -0.7 - -1.0 2023-11-21 01:00:00
1 2011-06-26 05:00:00 Ts debe ser mayor o igual a Td Ts=-0.2 - Td=0.0 2023-11-21 01:00:00
1 2011-06-26 05:00:00 HR (Humedad Relativa) es igual a 100% y Ts <> Td -0.2 - 0.0 2023-11-21 01:00:00
1 2011-06-26 07:00:00 Ts debe ser mayor o igual a Td Ts=-0.5 - Td=0.0 2023-11-21 01:00:00
1 2011-06-26 07:00:00 HR (Humedad Relativa) es igual a 100% y Ts <> Td -0.5 - 0.0 2023-11-21 01:00:00
1 2011-06-26 08:00:00 Ts debe ser mayor o igual a Td Ts=-0.2 - Td=0.0 2023-11-21 01:00:00
1 2011-06-26 08:00:00 HR (Humedad Relativa) es igual a 100% y Ts <> Td -0.2 - 0.0 2023-11-21 01:00:00
1 2011-06-26 09:00:00 HR (Humedad Relativa) es igual a 100% y Ts <> Td 0.2 - 0.0 2023-11-21 01:00:00
1 2011-06-26 10:00:00 HR (Humedad Relativa) es igual a 100% y Ts <> Td -0.5 - -1.0 2023-11-21 01:00:00
1 2011-06-26 11:00:00 HR (Humedad Relativa) es igual a 100% y Ts <> Td -0.7 - -1.0 2023-11-21 01:00:00
1 2011-06-27 03:00:00 HR (Humedad Relativa) es igual a 100% y Ts <> Td 5.3 - 5.0 2023-11-21 01:00:00
1 2011-06-27 05:00:00 Ts debe ser mayor o igual a Td Ts=6.6 - Td=7.0 2023-11-21 01:00:00
1 2011-06-27 05:00:00 HR (Humedad Relativa) es igual a 100% y Ts <> Td 6.6 - 7.0 2023-11-21 01:00:00
1 2011-06-27 08:00:00 Ts debe ser mayor o igual a Td Ts=5.9 - Td=6.0 2023-11-21 01:00:00
1 2011-06-27 09:00:00 HR (Humedad Relativa) es igual a 100% y Ts <> Td 5.4 - 5.0 2023-11-21 01:00:00
1 2011-06-27 10:00:00 HR (Humedad Relativa) es igual a 100% y Ts <> Td 5.5 - 5.0 2023-11-21 01:00:00
1 2011-06-27 13:00:00 HR (Humedad Relativa) es igual a 100% y Ts <> Td 5.4 - 5.0 2023-11-21 01:00:00
1 2011-06-27 15:00:00 Ts debe ser mayor o igual a Td Ts=6.8 - Td=7.0 2023-11-21 01:00:00
1 2011-06-27 16:00:00 Ts debe ser mayor o igual a Td Ts=9.6 - Td=9.7 2023-11-21 01:00:00
1 2011-06-28 01:00:00 HR (Humedad Relativa) es igual a 100% y Ts <> Td 6.5 - 6.0 2023-11-21 01:00:00
1 2011-06-28 02:00:00 HR (Humedad Relativa) es igual a 100% y Ts <> Td 6.3 - 6.0 2023-11-21 01:00:00
1 2011-06-28 03:00:00 HR (Humedad Relativa) es igual a 100% y Ts <> Td 6.3 - 6.0 2023-11-21 01:00:00
1 2011-06-28 05:00:00 Ts debe ser mayor o igual a Td Ts=6.8 - Td=7.0 2023-11-21 01:00:00
1 2011-06-28 11:00:00 Ts debe ser mayor o igual a Td Ts=8.6 - Td=8.7 2023-11-21 01:00:00
1 2011-06-28 13:00:00 Ts debe ser mayor o igual a Td Ts=8.5 - Td=9.0 2023-11-21 01:00:00
1 2011-06-28 13:00:00 HR (Humedad Relativa) es igual a 100% y Ts <> Td 8.5 - 9.0 2023-11-21 01:00:00
1 2011-06-28 14:00:00 Ts debe ser mayor o igual a Td Ts=8.9 - Td=9.0 2023-11-21 01:00:00
1 2011-06-28 15:00:00 Ts debe ser mayor o igual a Td Ts=9.8 - Td=10.0 2023-11-21 01:00:00
1 2011-06-29 02:00:00 Ts debe ser mayor o igual a Td Ts=6.9 - Td=7.0 2023-11-21 01:00:00
1 2011-06-29 03:00:00 Ts debe ser mayor o igual a Td Ts=6.7 - Td=7.0 2023-11-21 01:00:00
1 2011-06-29 03:00:00 HR (Humedad Relativa) es igual a 100% y Ts <> Td 6.7 - 7.0 2023-11-21 01:00:00
1 2011-06-29 07:00:00 Ts debe ser mayor o igual a Td Ts=5.7 - Td=6.0 2023-11-21 01:00:00
1 2011-06-29 09:00:00 Ts debe ser mayor o igual a Td Ts=3.9 - Td=4.0 2023-11-21 01:00:00
1 2011-06-29 11:00:00 Ts debe ser mayor o igual a Td Ts=4.6 - Td=4.7 2023-11-21 01:00:00
1 2011-06-30 09:00:00 Ts debe ser mayor o igual a Td Ts=1.8 - Td=1.9 2023-11-21 01:00:00
1 2011-06-30 10:00:00 Ts debe ser mayor o igual a Td Ts=1.6 - Td=1.9 2023-11-21 01:00:00
1 2011-06-30 11:00:00 HR (Humedad Relativa) es igual a 100% y Ts <> Td 1.4 - 1.0 2023-11-21 01:00:00
1 2011-06-30 12:00:00 HR (Humedad Relativa) es igual a 100% y Ts <> Td 1.4 - 1.0 2023-11-21 01:00:00
1 2011-07-01 05:00:00 Ts debe ser mayor o igual a Td Ts=3.6 - Td=3.7 2023-11-21 01:00:00
1 2011-07-01 09:00:00 Ts debe ser mayor o igual a Td Ts=1.8 - Td=2.0 2023-11-21 01:00:00
1 2011-07-01 09:00:00 HR (Humedad Relativa) es igual a 100% y Ts <> Td 1.8 - 2.0 2023-11-21 01:00:00
1 2011-07-01 12:00:00 Ts debe ser mayor o igual a Td Ts=0.5 - Td=1.0 2023-11-21 01:00:00
1 2011-07-01 12:00:00 HR (Humedad Relativa) es igual a 100% y Ts <> Td 0.5 - 1.0 2023-11-21 01:00:00
1 2011-07-01 13:00:00 HR (Humedad Relativa) es igual a 100% y Ts <> Td 1.2 - 1.0 2023-11-21 01:00:00
1 2011-07-02 00:00:00 Ts debe ser mayor o igual a Td Ts=2.7 - Td=3.0 2023-11-21 01:00:00
1 2011-07-02 00:00:00 HR (Humedad Relativa) es igual a 100% y Ts <> Td 2.7 - 3.0 2023-11-21 01:00:00
1 2011-07-02 02:00:00 Ts debe ser mayor o igual a Td Ts=2.9 - Td=3.0 2023-11-21 01:00:00
1 2011-07-02 04:00:00 Ts debe ser mayor o igual a Td Ts=1.9 - Td=2.0 2023-11-21 01:00:00
1 2011-07-02 05:00:00 Ts debe ser mayor o igual a Td Ts=2.5 - Td=3.0 2023-11-21 01:00:00
1 2011-07-02 05:00:00 HR (Humedad Relativa) es igual a 100% y Ts <> Td 2.5 - 3.0 2023-11-21 01:00:00
1 2011-07-02 06:00:00 HR (Humedad Relativa) es igual a 100% y Ts <> Td 2.5 - 2.0 2023-11-21 01:00:00
1 2011-07-02 08:00:00 HR (Humedad Relativa) es igual a 100% y Ts <> Td 1.5 - 1.0 2023-11-21 01:00:00
1 2011-07-02 09:00:00 Ts debe ser mayor o igual a Td Ts=0.7 - Td=1.0 2023-11-21 01:00:00
1 2011-07-02 09:00:00 HR (Humedad Relativa) es igual a 100% y Ts <> Td 0.7 - 1.0 2023-11-21 01:00:00
1 2011-07-02 10:00:00 Ts debe ser mayor o igual a Td Ts=0.9 - Td=1.0 2023-11-21 01:00:00
1 2011-07-02 11:00:00 Ts debe ser mayor o igual a Td Ts=-0.3 - Td=0.0 2023-11-21 01:00:00
1 2011-07-02 11:00:00 HR (Humedad Relativa) es igual a 100% y Ts <> Td -0.3 - 0.0 2023-11-21 01:00:00
1 2011-07-02 12:00:00 HR (Humedad Relativa) es igual a 100% y Ts <> Td 0.2 - 0.0 2023-11-21 01:00:00
1 2011-07-02 13:00:00 Ts debe ser mayor o igual a Td Ts=-0.1 - Td=0.0 2023-11-21 01:00:00
1 2011-07-03 03:00:00 HR (Humedad Relativa) es igual a 100% y Ts <> Td 0.4 - 0.0 2023-11-21 01:00:00
1 2011-07-03 05:00:00 HR (Humedad Relativa) es igual a 100% y Ts <> Td 0.2 - 0.0 2023-11-21 01:00:00
1 2011-07-03 06:00:00 Ts debe ser mayor o igual a Td Ts=0.7 - Td=1.0 2023-11-21 01:00:00
1 2011-07-03 06:00:00 HR (Humedad Relativa) es igual a 100% y Ts <> Td 0.7 - 1.0 2023-11-21 01:00:00
1 2011-07-03 07:00:00 HR (Humedad Relativa) es igual a 100% y Ts <> Td 0.4 - 0.0 2023-11-21 01:00:00
1 2011-07-03 09:00:00 Ts debe ser mayor o igual a Td Ts=-0.2 - Td=0.0 2023-11-21 01:00:00
1 2011-07-03 09:00:00 HR (Humedad Relativa) es igual a 100% y Ts <> Td -0.2 - 0.0 2023-11-21 01:00:00
1 2011-07-03 10:00:00 HR (Humedad Relativa) es igual a 100% y Ts <> Td 0.2 - 0.0 2023-11-21 01:00:00
1 2011-07-03 12:00:00 Ts debe ser mayor o igual a Td Ts=0.6 - Td=1.0 2023-11-21 01:00:00
1 2011-07-03 12:00:00 HR (Humedad Relativa) es igual a 100% y Ts <> Td 0.6 - 1.0 2023-11-21 01:00:00
1 2011-07-03 13:00:00 Ts debe ser mayor o igual a Td Ts=0.5 - Td=1.0 2023-11-21 01:00:00
1 2011-07-03 13:00:00 HR (Humedad Relativa) es igual a 100% y Ts <> Td 0.5 - 1.0 2023-11-21 01:00:00
1 2011-07-03 14:00:00 Ts debe ser mayor o igual a Td Ts=2.8 - Td=3.0 2023-11-21 01:00:00
1 2011-07-03 14:00:00 HR (Humedad Relativa) es igual a 100% y Ts <> Td 2.8 - 3.0 2023-11-21 01:00:00
1 2011-07-05 01:00:00 Ts debe ser mayor o igual a Td Ts=1.6 - Td=2.0 2023-11-21 01:00:00
1 2011-07-05 01:00:00 HR (Humedad Relativa) es igual a 100% y Ts <> Td 1.6 - 2.0 2023-11-21 01:00:00
1 2011-07-05 02:00:00 Ts debe ser mayor o igual a Td Ts=0.8 - Td=1.0 2023-11-21 01:00:00
1 2011-07-05 03:00:00 Ts debe ser mayor o igual a Td Ts=-0.4 - Td=0.0 2023-11-21 01:00:00
1 2011-07-05 03:00:00 HR (Humedad Relativa) es igual a 100% y Ts <> Td -0.4 - 0.0 2023-11-21 01:00:00
1 2011-07-05 04:00:00 Ts debe ser mayor o igual a Td Ts=-0.3 - Td=0.0 2023-11-21 01:00:00
1 2011-07-05 04:00:00 HR (Humedad Relativa) es igual a 100% y Ts <> Td -0.3 - 0.0 2023-11-21 01:00:00
1 2011-07-05 05:00:00 HR (Humedad Relativa) es igual a 100% y Ts <> Td -0.6 - -1.0 2023-11-21 01:00:00
1 2011-07-05 07:00:00 Ts debe ser mayor o igual a Td Ts=-1.1 - Td=-1.0 2023-11-21 01:00:00
1 2011-07-05 08:00:00 Ts debe ser mayor o igual a Td Ts=-1.2 - Td=-1.0 2023-11-21 01:00:00
1 2011-07-05 08:00:00 HR (Humedad Relativa) es igual a 100% y Ts <> Td -1.2 - -1.0 2023-11-21 01:00:00
1 2011-07-05 09:00:00 Ts debe ser mayor o igual a Td Ts=-1.2 - Td=-1.0 2023-11-21 01:00:00
1 2011-07-05 09:00:00 HR (Humedad Relativa) es igual a 100% y Ts <> Td -1.2 - -1.0 2023-11-21 01:00:00
1 2011-07-05 10:00:00 Ts debe ser mayor o igual a Td Ts=-1.3 - Td=-1.0 2023-11-21 01:00:00
1 2011-07-05 10:00:00 HR (Humedad Relativa) es igual a 100% y Ts <> Td -1.3 - -1.0 2023-11-21 01:00:00
1 2011-07-05 11:00:00 HR (Humedad Relativa) es igual a 100% y Ts <> Td -1.6 - -2.0 2023-11-21 01:00:00
1 2011-07-05 14:00:00 HR (Humedad Relativa) es igual a 100% y Ts <> Td 0.3 - 0.0 2023-11-21 01:00:00
1 2011-07-05 23:00:00 HR (Humedad Relativa) es igual a 100% y Ts <> Td 2.4 - 2.0 2023-11-21 01:00:00
1 2011-07-06 00:00:00 HR (Humedad Relativa) es igual a 100% y Ts <> Td 2.4 - 2.0 2023-11-21 01:00:00
1 2011-07-06 02:00:00 HR (Humedad Relativa) es igual a 100% y Ts <> Td 1.5 - 1.0 2023-11-21 01:00:00
1 2011-07-06 03:00:00 Ts debe ser mayor o igual a Td Ts=1.6 - Td=2.0 2023-11-21 01:00:00
1 2011-07-06 03:00:00 HR (Humedad Relativa) es igual a 100% y Ts <> Td 1.6 - 2.0 2023-11-21 01:00:00
1 2011-07-06 04:00:00 Ts debe ser mayor o igual a Td Ts=1.5 - Td=2.0 2023-11-21 01:00:00
1 2011-07-06 04:00:00 HR (Humedad Relativa) es igual a 100% y Ts <> Td 1.5 - 2.0 2023-11-21 01:00:00
1 2011-07-06 06:00:00 HR (Humedad Relativa) es igual a 100% y Ts <> Td 0.2 - 0.0 2023-11-21 01:00:00
1 2011-07-06 07:00:00 Ts debe ser mayor o igual a Td Ts=-0.4 - Td=0.0 2023-11-21 01:00:00
1 2011-07-06 07:00:00 HR (Humedad Relativa) es igual a 100% y Ts <> Td -0.4 - 0.0 2023-11-21 01:00:00
1 2011-07-06 08:00:00 Ts debe ser mayor o igual a Td Ts=-0.4 - Td=0.0 2023-11-21 01:00:00
1 2011-07-06 08:00:00 HR (Humedad Relativa) es igual a 100% y Ts <> Td -0.4 - 0.0 2023-11-21 01:00:00
1 2011-07-06 09:00:00 Ts debe ser mayor o igual a Td Ts=-0.3 - Td=0.0 2023-11-21 01:00:00
1 2011-07-06 09:00:00 HR (Humedad Relativa) es igual a 100% y Ts <> Td -0.3 - 0.0 2023-11-21 01:00:00
1 2011-07-06 10:00:00 HR (Humedad Relativa) es igual a 100% y Ts <> Td 0.2 - 0.0 2023-11-21 01:00:00
1 2011-07-06 11:00:00 Ts debe ser mayor o igual a Td Ts=0.6 - Td=1.0 2023-11-21 01:00:00
1 2011-07-06 11:00:00 HR (Humedad Relativa) es igual a 100% y Ts <> Td 0.6 - 1.0 2023-11-21 01:00:00
1 2011-07-06 12:00:00 HR (Humedad Relativa) es igual a 100% y Ts <> Td 1.2 - 1.0 2023-11-21 01:00:00
1 2011-07-06 13:00:00 Ts debe ser mayor o igual a Td Ts=1.6 - Td=2.0 2023-11-21 01:00:00
1 2011-07-06 13:00:00 HR (Humedad Relativa) es igual a 100% y Ts <> Td 1.6 - 2.0 2023-11-21 01:00:00
1 2011-07-06 15:00:00 Ts debe ser mayor o igual a Td Ts=4.8 - Td=4.9 2023-11-21 01:00:00
1 2011-07-08 02:00:00 Ts debe ser mayor o igual a Td Ts=9.6 - Td=9.7 2023-11-21 01:00:00
1 2011-07-08 03:00:00 Ts debe ser mayor o igual a Td Ts=8.7 - Td=8.8 2023-11-21 01:00:00
1 2011-07-08 04:00:00 Ts debe ser mayor o igual a Td Ts=7.7 - Td=8.0 2023-11-21 01:00:00
1 2011-07-08 04:00:00 HR (Humedad Relativa) es igual a 100% y Ts <> Td 7.7 - 8.0 2023-11-21 01:00:00
1 2011-07-08 05:00:00 Ts debe ser mayor o igual a Td Ts=7.5 - Td=8.0 2023-11-21 01:00:00
1 2011-07-08 05:00:00 HR (Humedad Relativa) es igual a 100% y Ts <> Td 7.5 - 8.0 2023-11-21 01:00:00
1 2011-07-08 06:00:00 HR (Humedad Relativa) es igual a 100% y Ts <> Td 7.4 - 7.0 2023-11-21 01:00:00
1 2011-07-08 07:00:00 Ts debe ser mayor o igual a Td Ts=5.7 - Td=6.0 2023-11-21 01:00:00
1 2011-07-08 07:00:00 HR (Humedad Relativa) es igual a 100% y Ts <> Td 5.7 - 6.0 2023-11-21 01:00:00
1 2011-07-08 08:00:00 Ts debe ser mayor o igual a Td Ts=5.6 - Td=6.0 2023-11-21 01:00:00
1 2011-07-08 08:00:00 HR (Humedad Relativa) es igual a 100% y Ts <> Td 5.6 - 6.0 2023-11-21 01:00:00
1 2011-07-08 09:00:00 HR (Humedad Relativa) es igual a 100% y Ts <> Td 5.3 - 5.0 2023-11-21 01:00:00
1 2011-07-08 10:00:00 Ts debe ser mayor o igual a Td Ts=5.6 - Td=6.0 2023-11-21 01:00:00
1 2011-07-08 10:00:00 HR (Humedad Relativa) es igual a 100% y Ts <> Td 5.6 - 6.0 2023-11-21 01:00:00
1 2011-07-08 11:00:00 Ts debe ser mayor o igual a Td Ts=5.6 - Td=6.0 2023-11-21 01:00:00
1 2011-07-08 11:00:00 HR (Humedad Relativa) es igual a 100% y Ts <> Td 5.6 - 6.0 2023-11-21 01:00:00
1 2011-07-08 13:00:00 HR (Humedad Relativa) es igual a 100% y Ts <> Td 5.3 - 5.0 2023-11-21 01:00:00
1 2011-07-08 14:00:00 Ts debe ser mayor o igual a Td Ts=5.9 - Td=6.0 2023-11-21 01:00:00
1 2011-07-08 16:00:00 Ts debe ser mayor o igual a Td Ts=7.7 - Td=8.0 2023-11-21 01:00:00
1 2011-07-08 16:00:00 HR (Humedad Relativa) es igual a 100% y Ts <> Td 7.7 - 8.0 2023-11-21 01:00:00
1 2011-07-08 17:00:00 HR (Humedad Relativa) es igual a 100% y Ts <> Td 8.4 - 8.0 2023-11-21 01:01:00
1 2011-07-08 18:00:00 Ts debe ser mayor o igual a Td Ts=8.6 - Td=9.0 2023-11-21 01:01:00
1 2011-07-08 18:00:00 HR (Humedad Relativa) es igual a 100% y Ts <> Td 8.6 - 9.0 2023-11-21 01:01:00
1 2011-07-08 23:00:00 Ts debe ser mayor o igual a Td Ts=8.7 - Td=9.0 2023-11-21 01:01:00
1 2011-07-08 23:00:00 HR (Humedad Relativa) es igual a 100% y Ts <> Td 8.7 - 9.0 2023-11-21 01:01:00
1 2011-07-09 00:00:00 Ts debe ser mayor o igual a Td Ts=8.6 - Td=9.0 2023-11-21 01:01:00
1 2011-07-09 00:00:00 HR (Humedad Relativa) es igual a 100% y Ts <> Td 8.6 - 9.0 2023-11-21 01:01:00
1 2011-07-09 17:00:00 Ts debe ser mayor o igual a Td Ts=6.8 - Td=7.0 2023-11-21 01:01:00
1 2011-07-09 18:00:00 Ts debe ser mayor o igual a Td Ts=6.8 - Td=7.0 2023-11-21 01:01:00
1 2011-07-09 23:00:00 Ts debe ser mayor o igual a Td Ts=4.7 - Td=5.0 2023-11-21 01:01:00
1 2011-07-09 23:00:00 HR (Humedad Relativa) es igual a 100% y Ts <> Td 4.7 - 5.0 2023-11-21 01:01:00
1 2011-07-10 00:00:00 Ts debe ser mayor o igual a Td Ts=4.7 - Td=5.0 2023-11-21 01:01:00
1 2011-07-10 00:00:00 HR (Humedad Relativa) es igual a 100% y Ts <> Td 4.7 - 5.0 2023-11-21 01:01:00
1 2011-07-10 01:00:00 Ts debe ser mayor o igual a Td Ts=4.8 - Td=5.0 2023-11-21 01:01:00
1 2011-07-10 02:00:00 Ts debe ser mayor o igual a Td Ts=4.8 - Td=5.0 2023-11-21 01:01:00
1 2011-07-10 03:00:00 Ts debe ser mayor o igual a Td Ts=4.7 - Td=5.0 2023-11-21 01:01:00
1 2011-07-10 03:00:00 HR (Humedad Relativa) es igual a 100% y Ts <> Td 4.7 - 5.0 2023-11-21 01:01:00
1 2011-07-10 04:00:00 Ts debe ser mayor o igual a Td Ts=4.8 - Td=5.0 2023-11-21 01:01:00
1 2011-07-10 05:00:00 Ts debe ser mayor o igual a Td Ts=4.9 - Td=5.0 2023-11-21 01:01:00
1 2011-07-10 08:00:00 HR (Humedad Relativa) es igual a 100% y Ts <> Td 5.3 - 5.0 2023-11-21 01:01:00
1 2011-07-10 09:00:00 Ts debe ser mayor o igual a Td Ts=5.6 - Td=6.0 2023-11-21 01:01:00
1 2011-07-10 09:00:00 HR (Humedad Relativa) es igual a 100% y Ts <> Td 5.6 - 6.0 2023-11-21 01:01:00
1 2011-07-11 01:00:00 Ts debe ser mayor o igual a Td Ts=10.6 - Td=10.7 2023-11-21 01:01:00
1 2011-07-11 04:00:00 Ts debe ser mayor o igual a Td Ts=10.5 - Td=10.7 2023-11-21 01:01:00
1 2011-07-11 05:00:00 Ts debe ser mayor o igual a Td Ts=10.6 - Td=10.7 2023-11-21 01:01:00
1 2011-07-12 17:00:00 Ts debe ser mayor o igual a Td Ts=8.5 - Td=8.7 2023-11-21 01:01:00
1 2011-07-13 01:00:00 Ts debe ser mayor o igual a Td Ts=9.5 - Td=9.7 2023-11-21 01:01:00
1 2011-07-13 02:00:00 Ts debe ser mayor o igual a Td Ts=9.6 - Td=9.7 2023-11-21 01:01:00
1 2011-07-14 02:00:00 Ts debe ser mayor o igual a Td Ts=6.7 - Td=6.9 2023-11-21 01:01:00
1 2011-07-14 05:00:00 Ts debe ser mayor o igual a Td Ts=5.9 - Td=6.0 2023-11-21 01:01:00
1 2011-07-14 08:00:00 Ts debe ser mayor o igual a Td Ts=5.6 - Td=6.0 2023-11-21 01:01:00
1 2011-07-14 08:00:00 HR (Humedad Relativa) es igual a 100% y Ts <> Td 5.6 - 6.0 2023-11-21 01:01:00
1 2011-07-14 10:00:00 HR (Humedad Relativa) es igual a 100% y Ts <> Td 5.4 - 5.0 2023-11-21 01:01:00
1 2011-07-15 02:00:00 Ts debe ser mayor o igual a Td Ts=3.7 - Td=3.9 2023-11-21 01:01:00
1 2011-07-15 03:00:00 HR (Humedad Relativa) es igual a 100% y Ts <> Td 3.4 - 3.0 2023-11-21 01:01:00
1 2011-07-15 04:00:00 HR (Humedad Relativa) es igual a 100% y Ts <> Td 2.2 - 2.0 2023-11-21 01:01:00
1 2011-07-15 06:00:00 HR (Humedad Relativa) es igual a 100% y Ts <> Td 1.2 - 1.0 2023-11-21 01:01:00
1 2011-07-15 08:00:00 HR (Humedad Relativa) es igual a 100% y Ts <> Td 2.4 - 2.0 2023-11-21 01:01:00
1 2011-07-15 12:00:00 Ts debe ser mayor o igual a Td Ts=3.6 - Td=3.9 2023-11-21 01:01:00
1 2011-07-16 04:00:00 Ts debe ser mayor o igual a Td Ts=3.5 - Td=3.9 2023-11-21 01:01:00
1 2011-07-16 05:00:00 HR (Humedad Relativa) es igual a 100% y Ts <> Td 3.2 - 3.0 2023-11-21 01:01:00
1 2011-07-16 09:00:00 Ts debe ser mayor o igual a Td Ts=1.5 - Td=2.0 2023-11-21 01:01:00
1 2011-07-16 09:00:00 HR (Humedad Relativa) es igual a 100% y Ts <> Td 1.5 - 2.0 2023-11-21 01:01:00
1 2011-07-16 10:00:00 HR (Humedad Relativa) es igual a 100% y Ts <> Td 1.2 - 1.0 2023-11-21 01:01:00
1 2011-07-16 11:00:00 Ts debe ser mayor o igual a Td Ts=0.6 - Td=1.0 2023-11-21 01:01:00
1 2011-07-16 11:00:00 HR (Humedad Relativa) es igual a 100% y Ts <> Td 0.6 - 1.0 2023-11-21 01:01:00
1 2011-07-16 12:00:00 HR (Humedad Relativa) es igual a 100% y Ts <> Td 1.3 - 1.0 2023-11-21 01:01:00
1 2011-07-17 00:00:00 HR (Humedad Relativa) es igual a 100% y Ts <> Td 0.4 - 0.0 2023-11-21 01:01:00
1 2011-07-17 01:00:00 HR (Humedad Relativa) es igual a 100% y Ts <> Td 0.4 - 0.0 2023-11-21 01:01:00
1 2011-07-17 02:00:00 HR (Humedad Relativa) es igual a 100% y Ts <> Td 0.4 - 0.0 2023-11-21 01:01:00
1 2011-07-17 04:00:00 Ts debe ser mayor o igual a Td Ts=0.9 - Td=1.0 2023-11-21 01:01:00
1 2011-07-17 05:00:00 Ts debe ser mayor o igual a Td Ts=0.9 - Td=1.0 2023-11-21 01:01:00
1 2011-07-17 06:00:00 Ts debe ser mayor o igual a Td Ts=0.8 - Td=1.0 2023-11-21 01:01:00
1 2011-07-17 07:00:00 Ts debe ser mayor o igual a Td Ts=0.6 - Td=1.0 2023-11-21 01:01:00
1 2011-07-17 07:00:00 HR (Humedad Relativa) es igual a 100% y Ts <> Td 0.6 - 1.0 2023-11-21 01:01:00
1 2011-07-17 08:00:00 Ts debe ser mayor o igual a Td Ts=0.6 - Td=1.0 2023-11-21 01:01:00
1 2011-07-17 08:00:00 HR (Humedad Relativa) es igual a 100% y Ts <> Td 0.6 - 1.0 2023-11-21 01:01:00
1 2011-07-17 09:00:00 Ts debe ser mayor o igual a Td Ts=0.9 - Td=1.0 2023-11-21 01:01:00
1 2011-07-17 10:00:00 Ts debe ser mayor o igual a Td Ts=0.7 - Td=1.0 2023-11-21 01:01:00
1 2011-07-17 10:00:00 HR (Humedad Relativa) es igual a 100% y Ts <> Td 0.7 - 1.0 2023-11-21 01:01:00
1 2011-07-17 11:00:00 HR (Humedad Relativa) es igual a 100% y Ts <> Td 0.5 - 0.0 2023-11-21 01:01:00
1 2011-07-17 12:00:00 HR (Humedad Relativa) es igual a 100% y Ts <> Td 0.3 - 0.0 2023-11-21 01:01:00
1 2011-07-17 14:00:00 Ts debe ser mayor o igual a Td Ts=0.8 - Td=1.0 2023-11-21 01:01:00
1 2011-07-17 15:00:00 Ts debe ser mayor o igual a Td Ts=1.8 - Td=2.0 2023-11-21 01:01:00
1 2011-07-17 15:00:00 HR (Humedad Relativa) es igual a 100% y Ts <> Td 1.8 - 2.0 2023-11-21 01:01:00
1 2011-07-18 02:00:00 Ts debe ser mayor o igual a Td Ts=0.9 - Td=1.0 2023-11-21 01:01:00
1 2011-07-18 03:00:00 HR (Humedad Relativa) es igual a 100% y Ts <> Td 0.4 - 0.0 2023-11-21 01:01:00
1 2011-07-18 04:00:00 HR (Humedad Relativa) es igual a 100% y Ts <> Td 0.2 - 0.0 2023-11-21 01:01:00
1 2011-07-18 06:00:00 Ts debe ser mayor o igual a Td Ts=-1.1 - Td=-1.0 2023-11-21 01:01:00
1 2011-07-18 07:00:00 Ts debe ser mayor o igual a Td Ts=-1.3 - Td=-1.0 2023-11-21 01:01:00
1 2011-07-18 07:00:00 HR (Humedad Relativa) es igual a 100% y Ts <> Td -1.3 - -1.0 2023-11-21 01:01:00
1 2011-07-18 08:00:00 Ts debe ser mayor o igual a Td Ts=-1.2 - Td=-1.0 2023-11-21 01:01:00
1 2011-07-18 08:00:00 HR (Humedad Relativa) es igual a 100% y Ts <> Td -1.2 - -1.0 2023-11-21 01:01:00
1 2011-07-18 09:00:00 Ts debe ser mayor o igual a Td Ts=-1.4 - Td=-1.0 2023-11-21 01:01:00
1 2011-07-18 09:00:00 HR (Humedad Relativa) es igual a 100% y Ts <> Td -1.4 - -1.0 2023-11-21 01:01:00
1 2011-07-18 10:00:00 Ts debe ser mayor o igual a Td Ts=-1.4 - Td=-1.0 2023-11-21 01:01:00
1 2011-07-18 10:00:00 HR (Humedad Relativa) es igual a 100% y Ts <> Td -1.4 - -1.0 2023-11-21 01:01:00
1 2011-07-18 11:00:00 Ts debe ser mayor o igual a Td Ts=-2.3 - Td=-2.0 2023-11-21 01:01:00
1 2011-07-18 11:00:00 HR (Humedad Relativa) es igual a 100% y Ts <> Td -2.3 - -2.0 2023-11-21 01:01:00
1 2011-07-18 12:00:00 Ts debe ser mayor o igual a Td Ts=-2.4 - Td=-2.0 2023-11-21 01:01:00
1 2011-07-18 12:00:00 HR (Humedad Relativa) es igual a 100% y Ts <> Td -2.4 - -2.0 2023-11-21 01:01:00
1 2011-07-19 00:00:00 Ts debe ser mayor o igual a Td Ts=1.9 - Td=2.0 2023-11-21 01:01:00
1 2011-07-19 02:00:00 Ts debe ser mayor o igual a Td Ts=-0.1 - Td=0.0 2023-11-21 01:01:00
1 2011-07-19 03:00:00 Ts debe ser mayor o igual a Td Ts=-0.2 - Td=0.0 2023-11-21 01:01:00
1 2011-07-19 03:00:00 HR (Humedad Relativa) es igual a 100% y Ts <> Td -0.2 - 0.0 2023-11-21 01:01:00
1 2011-07-19 04:00:00 Ts debe ser mayor o igual a Td Ts=-1.4 - Td=-1.0 2023-11-21 01:01:00
1 2011-07-19 04:00:00 HR (Humedad Relativa) es igual a 100% y Ts <> Td -1.4 - -1.0 2023-11-21 01:01:00
1 2011-07-19 05:00:00 Ts debe ser mayor o igual a Td Ts=-1.4 - Td=-1.0 2023-11-21 01:01:00
1 2011-07-19 05:00:00 HR (Humedad Relativa) es igual a 100% y Ts <> Td -1.4 - -1.0 2023-11-21 01:01:00
1 2011-07-19 06:00:00 Ts debe ser mayor o igual a Td Ts=-1.4 - Td=-1.0 2023-11-21 01:01:00
1 2011-07-19 06:00:00 HR (Humedad Relativa) es igual a 100% y Ts <> Td -1.4 - -1.0 2023-11-21 01:01:00
1 2011-07-19 07:00:00 HR (Humedad Relativa) es igual a 100% y Ts <> Td -1.6 - -2.0 2023-11-21 01:01:00
1 2011-07-19 08:00:00 Ts debe ser mayor o igual a Td Ts=-1.4 - Td=-1.0 2023-11-21 01:01:00
1 2011-07-19 08:00:00 HR (Humedad Relativa) es igual a 100% y Ts <> Td -1.4 - -1.0 2023-11-21 01:01:00
1 2011-07-19 09:00:00 Ts debe ser mayor o igual a Td Ts=-1.5 - Td=-1.0 2023-11-21 01:01:00
1 2011-07-19 09:00:00 HR (Humedad Relativa) es igual a 100% y Ts <> Td -1.5 - -1.0 2023-11-21 01:01:00
1 2011-07-19 10:00:00 HR (Humedad Relativa) es igual a 100% y Ts <> Td -1.7 - -2.0 2023-11-21 01:01:00
1 2011-07-19 12:00:00 Ts debe ser mayor o igual a Td Ts=-2.2 - Td=-2.0 2023-11-21 01:01:00
1 2011-07-19 12:00:00 HR (Humedad Relativa) es igual a 100% y Ts <> Td -2.2 - -2.0 2023-11-21 01:01:00
1 2011-07-20 20:00:00 Ts debe ser mayor o igual a Td Ts=7.6 - Td=7.7 2023-11-21 01:01:00
1 2011-07-20 21:00:00 Ts debe ser mayor o igual a Td Ts=7.7 - Td=7.9 2023-11-21 01:01:00
1 2011-07-21 10:00:00 Ts debe ser mayor o igual a Td Ts=10.5 - Td=10.8 2023-11-21 01:01:00
1 2011-07-21 14:00:00 Ts debe ser mayor o igual a Td Ts=10.6 - Td=10.8 2023-11-21 01:01:00
1 2011-07-22 06:00:00 HR (Humedad Relativa) es igual a 100% y Ts <> Td 9.4 - 9.0 2023-11-21 01:01:00
1 2011-07-22 07:00:00 HR (Humedad Relativa) es igual a 100% y Ts <> Td 9.3 - 9.0 2023-11-21 01:01:00
1 2011-07-22 08:00:00 HR (Humedad Relativa) es igual a 100% y Ts <> Td 9.5 - 9.0 2023-11-21 01:01:00
1 2011-07-22 09:00:00 Ts debe ser mayor o igual a Td Ts=9.6 - Td=10.0 2023-11-21 01:01:00
1 2011-07-22 10:00:00 Ts debe ser mayor o igual a Td Ts=9.6 - Td=10.0 2023-11-21 01:01:00
1 2011-07-22 11:00:00 Ts debe ser mayor o igual a Td Ts=9.6 - Td=9.8 2023-11-21 01:01:00
1 2011-07-22 12:00:00 Ts debe ser mayor o igual a Td Ts=9.6 - Td=9.8 2023-11-21 01:01:00
1 2011-07-23 06:00:00 HR (Humedad Relativa) es igual a 100% y Ts <> Td 9.3 - 9.0 2023-11-21 01:01:00
1 2011-07-23 07:00:00 HR (Humedad Relativa) es igual a 100% y Ts <> Td 9.3 - 9.0 2023-11-21 01:01:00
1 2011-07-23 10:00:00 HR (Humedad Relativa) es igual a 100% y Ts <> Td 8.3 - 8.0 2023-11-21 01:01:00
1 2011-07-23 11:00:00 Ts debe ser mayor o igual a Td Ts=8.5 - Td=9.0 2023-11-21 01:01:00
1 2011-07-23 11:00:00 HR (Humedad Relativa) es igual a 100% y Ts <> Td 8.5 - 9.0 2023-11-21 01:01:00
1 2011-07-23 14:00:00 Ts debe ser mayor o igual a Td Ts=9.6 - Td=9.7 2023-11-21 01:01:00
1 2011-07-24 03:00:00 Ts debe ser mayor o igual a Td Ts=8.9 - Td=9.0 2023-11-21 01:01:00
1 2011-07-24 04:00:00 Ts debe ser mayor o igual a Td Ts=8.7 - Td=9.0 2023-11-21 01:01:00
1 2011-07-24 04:00:00 HR (Humedad Relativa) es igual a 100% y Ts <> Td 8.7 - 9.0 2023-11-21 01:01:00
1 2011-07-24 17:00:00 Ts debe ser mayor o igual a Td Ts=9.6 - Td=9.7 2023-11-21 01:01:00
1 2011-07-25 03:00:00 Ts debe ser mayor o igual a Td Ts=7.6 - Td=7.9 2023-11-21 01:01:00
1 2011-07-25 05:00:00 Ts debe ser mayor o igual a Td Ts=7.8 - Td=7.9 2023-11-21 01:01:00
1 2011-07-25 06:00:00 Ts debe ser mayor o igual a Td Ts=7.8 - Td=7.9 2023-11-21 01:01:00
1 2011-07-26 02:00:00 Ts debe ser mayor o igual a Td Ts=6.5 - Td=6.9 2023-11-21 01:01:00
1 2011-07-26 04:00:00 HR (Humedad Relativa) es igual a 100% y Ts <> Td 6.5 - 6.0 2023-11-21 01:01:00
1 2011-07-26 06:00:00 Ts debe ser mayor o igual a Td Ts=6.7 - Td=7.0 2023-11-21 01:01:00
1 2011-07-27 02:00:00 Ts debe ser mayor o igual a Td Ts=7.9 - Td=8.0 2023-11-21 01:01:00
1 2011-07-27 03:00:00 Ts debe ser mayor o igual a Td Ts=7.9 - Td=8.0 2023-11-21 01:01:00
1 2011-07-27 06:00:00 Ts debe ser mayor o igual a Td Ts=7.5 - Td=7.9 2023-11-21 01:01:00
1 2011-07-28 08:00:00 HR (Humedad Relativa) es igual a 100% y Ts <> Td 5.5 - 5.0 2023-11-21 01:01:00
1 2011-07-28 09:00:00 HR (Humedad Relativa) es igual a 100% y Ts <> Td 5.4 - 5.0 2023-11-21 01:01:00
1 2011-07-28 10:00:00 HR (Humedad Relativa) es igual a 100% y Ts <> Td 5.4 - 5.0 2023-11-21 01:01:00
1 2011-07-28 12:00:00 Ts debe ser mayor o igual a Td Ts=4.6 - Td=5.0 2023-11-21 01:01:00
1 2011-07-28 12:00:00 HR (Humedad Relativa) es igual a 100% y Ts <> Td 4.6 - 5.0 2023-11-21 01:01:00
1 2011-07-28 23:00:00 Ts debe ser mayor o igual a Td Ts=6.7 - Td=6.9 2023-11-21 01:01:00
1 2011-07-29 02:00:00 Ts debe ser mayor o igual a Td Ts=5.7 - Td=6.0 2023-11-21 01:01:00
1 2011-07-29 02:00:00 HR (Humedad Relativa) es igual a 100% y Ts <> Td 5.7 - 6.0 2023-11-21 01:01:00
1 2011-07-29 05:00:00 Ts debe ser mayor o igual a Td Ts=4.7 - Td=5.0 2023-11-21 01:01:00
1 2011-07-29 05:00:00 HR (Humedad Relativa) es igual a 100% y Ts <> Td 4.7 - 5.0 2023-11-21 01:01:00
1 2011-07-29 06:00:00 Ts debe ser mayor o igual a Td Ts=4.9 - Td=5.0 2023-11-21 01:01:00
1 2011-07-29 12:00:00 HR (Humedad Relativa) es igual a 100% y Ts <> Td 3.4 - 3.0 2023-11-21 01:01:00
1 2011-07-30 03:00:00 Ts debe ser mayor o igual a Td Ts=0.6 - Td=0.9 2023-11-21 01:01:00
1 2011-07-30 08:00:00 Ts debe ser mayor o igual a Td Ts=-0.2 - Td=0.0 2023-11-21 01:01:00
1 2011-07-30 08:00:00 HR (Humedad Relativa) es igual a 100% y Ts <> Td -0.2 - 0.0 2023-11-21 01:01:00
1 2011-07-30 09:00:00 Ts debe ser mayor o igual a Td Ts=-0.2 - Td=0.0 2023-11-21 01:01:00
1 2011-07-30 09:00:00 HR (Humedad Relativa) es igual a 100% y Ts <> Td -0.2 - 0.0 2023-11-21 01:01:00
1 2011-07-30 10:00:00 Ts debe ser mayor o igual a Td Ts=-0.3 - Td=-0.1 2023-11-21 01:01:00
1 2011-07-31 01:00:00 Ts debe ser mayor o igual a Td Ts=1.5 - Td=1.6 2023-11-21 01:01:00
1 2011-07-31 02:00:00 Ts debe ser mayor o igual a Td Ts=1.6 - Td=1.7 2023-11-21 01:01:00
1 2011-07-31 03:00:00 Ts debe ser mayor o igual a Td Ts=0.8 - Td=1.0 2023-11-21 01:01:00
1 2011-07-31 05:00:00 HR (Humedad Relativa) es igual a 100% y Ts <> Td -0.6 - -1.0 2023-11-21 01:01:00
1 2011-07-31 07:00:00 Ts debe ser mayor o igual a Td Ts=-0.1 - Td=0.0 2023-11-21 01:01:00
1 2011-07-31 08:00:00 HR (Humedad Relativa) es igual a 100% y Ts <> Td -0.5 - -1.0 2023-11-21 01:01:00
1 2011-07-31 09:00:00 HR (Humedad Relativa) es igual a 100% y Ts <> Td 0.3 - 0.0 2023-11-21 01:01:00
1 2011-07-31 10:00:00 Ts debe ser mayor o igual a Td Ts=0.6 - Td=1.0 2023-11-21 01:01:00
1 2011-07-31 10:00:00 HR (Humedad Relativa) es igual a 100% y Ts <> Td 0.6 - 1.0 2023-11-21 01:01:00
1 2011-07-31 12:00:00 HR (Humedad Relativa) es igual a 100% y Ts <> Td 1.4 - 1.0 2023-11-21 01:01:00
1 2011-07-31 13:00:00 Ts debe ser mayor o igual a Td Ts=1.6 - Td=2.0 2023-11-21 01:01:00
1 2011-07-31 13:00:00 HR (Humedad Relativa) es igual a 100% y Ts <> Td 1.6 - 2.0 2023-11-21 01:01:00
1 2011-07-31 14:00:00 Ts debe ser mayor o igual a Td Ts=1.9 - Td=2.0 2023-11-21 01:01:00
1 2011-08-01 03:00:00 Ts debe ser mayor o igual a Td Ts=2.8 - Td=2.9 2023-11-21 01:01:00
1 2011-08-01 06:00:00 Ts debe ser mayor o igual a Td Ts=3.6 - Td=3.7 2023-11-21 01:01:00
1 2011-08-01 12:00:00 Ts debe ser mayor o igual a Td Ts=3.5 - Td=3.6 2023-11-21 01:01:00
1 2011-08-02 00:00:00 Ts debe ser mayor o igual a Td Ts=5.6 - Td=5.7 2023-11-21 01:01:00
1 2011-08-02 01:00:00 Ts debe ser mayor o igual a Td Ts=5.6 - Td=5.7 2023-11-21 01:01:00
1 2011-08-02 02:00:00 Ts debe ser mayor o igual a Td Ts=5.7 - Td=5.9 2023-11-21 01:01:00
1 2011-08-02 03:00:00 Ts debe ser mayor o igual a Td Ts=5.6 - Td=5.9 2023-11-21 01:01:00
1 2011-08-02 04:00:00 Ts debe ser mayor o igual a Td Ts=5.6 - Td=5.9 2023-11-21 01:01:00
1 2011-08-02 05:00:00 Ts debe ser mayor o igual a Td Ts=5.5 - Td=5.7 2023-11-21 01:01:00
1 2011-08-02 06:00:00 HR (Humedad Relativa) es igual a 100% y Ts <> Td 5.5 - 5.0 2023-11-21 01:01:00
1 2011-08-02 07:00:00 HR (Humedad Relativa) es igual a 100% y Ts <> Td 5.4 - 5.0 2023-11-21 01:01:00
1 2011-08-02 08:00:00 HR (Humedad Relativa) es igual a 100% y Ts <> Td 5.4 - 5.0 2023-11-21 01:01:00
1 2011-08-02 10:00:00 HR (Humedad Relativa) es igual a 100% y Ts <> Td 5.3 - 5.0 2023-11-21 01:01:00
1 2011-08-02 12:00:00 HR (Humedad Relativa) es igual a 100% y Ts <> Td 4.5 - 4.0 2023-11-21 01:01:00
1 2011-08-03 01:00:00 Ts debe ser mayor o igual a Td Ts=5.9 - Td=6.0 2023-11-21 01:01:00
1 2011-08-03 04:00:00 Ts debe ser mayor o igual a Td Ts=3.6 - Td=4.0 2023-11-21 01:01:00
1 2011-08-03 04:00:00 HR (Humedad Relativa) es igual a 100% y Ts <> Td 3.6 - 4.0 2023-11-21 01:01:00
1 2011-08-03 05:00:00 Ts debe ser mayor o igual a Td Ts=2.8 - Td=3.0 2023-11-21 01:01:00
1 2011-08-03 05:00:00 HR (Humedad Relativa) es igual a 100% y Ts <> Td 2.8 - 3.0 2023-11-21 01:01:00
1 2011-08-03 07:00:00 Ts debe ser mayor o igual a Td Ts=2.9 - Td=3.0 2023-11-21 01:01:00
1 2011-08-03 08:00:00 Ts debe ser mayor o igual a Td Ts=3.7 - Td=4.0 2023-11-21 01:01:00
1 2011-08-03 08:00:00 HR (Humedad Relativa) es igual a 100% y Ts <> Td 3.7 - 4.0 2023-11-21 01:01:00
1 2011-08-03 09:00:00 HR (Humedad Relativa) es igual a 100% y Ts <> Td 4.3 - 4.0 2023-11-21 01:01:00
1 2011-08-03 10:00:00 Ts debe ser mayor o igual a Td Ts=4.5 - Td=4.6 2023-11-21 01:01:00
1 2011-08-03 11:00:00 HR (Humedad Relativa) es igual a 100% y Ts <> Td 2.5 - 2.0 2023-11-21 01:01:00
1 2011-08-03 12:00:00 Ts debe ser mayor o igual a Td Ts=2.9 - Td=3.0 2023-11-21 01:01:00
1 2011-08-03 13:00:00 Ts debe ser mayor o igual a Td Ts=4.5 - Td=5.0 2023-11-21 01:01:00
1 2011-08-03 14:00:00 Ts debe ser mayor o igual a Td Ts=4.8 - Td=5.0 2023-11-21 01:01:00
1 2011-08-05 03:00:00 Ts debe ser mayor o igual a Td Ts=5.5 - Td=5.6 2023-11-21 01:01:00
1 2011-08-06 03:00:00 Ts debe ser mayor o igual a Td Ts=5.8 - Td=6.0 2023-11-21 01:01:00
1 2011-08-06 06:00:00 Ts debe ser mayor o igual a Td Ts=6.6 - Td=6.9 2023-11-21 01:01:00
1 2011-08-06 07:00:00 Ts debe ser mayor o igual a Td Ts=6.6 - Td=7.0 2023-11-21 01:01:00
1 2011-08-06 07:00:00 HR (Humedad Relativa) es igual a 100% y Ts <> Td 6.6 - 7.0 2023-11-21 01:01:00
1 2011-08-06 08:00:00 Ts debe ser mayor o igual a Td Ts=6.6 - Td=7.0 2023-11-21 01:01:00
1 2011-08-06 08:00:00 HR (Humedad Relativa) es igual a 100% y Ts <> Td 6.6 - 7.0 2023-11-21 01:01:00
1 2011-08-06 09:00:00 Ts debe ser mayor o igual a Td Ts=6.5 - Td=7.0 2023-11-21 01:01:00
1 2011-08-06 09:00:00 HR (Humedad Relativa) es igual a 100% y Ts <> Td 6.5 - 7.0 2023-11-21 01:01:00
1 2011-08-06 10:00:00 Ts debe ser mayor o igual a Td Ts=6.5 - Td=7.0 2023-11-21 01:01:00
1 2011-08-06 10:00:00 HR (Humedad Relativa) es igual a 100% y Ts <> Td 6.5 - 7.0 2023-11-21 01:01:00
1 2011-08-06 12:00:00 Ts debe ser mayor o igual a Td Ts=5.8 - Td=6.0 2023-11-21 01:01:00
1 2011-08-06 14:00:00 Ts debe ser mayor o igual a Td Ts=6.6 - Td=7.0 2023-11-21 01:01:00
1 2011-08-06 14:00:00 HR (Humedad Relativa) es igual a 100% y Ts <> Td 6.6 - 7.0 2023-11-21 01:01:00
1 2011-08-07 07:00:00 Ts debe ser mayor o igual a Td Ts=3.8 - Td=3.9 2023-11-21 01:01:00
1 2011-08-07 08:00:00 Ts debe ser mayor o igual a Td Ts=3.7 - Td=3.9 2023-11-21 01:01:00
1 2011-08-07 12:00:00 Ts debe ser mayor o igual a Td Ts=3.6 - Td=3.9 2023-11-21 01:01:00
1 2011-08-08 02:00:00 HR (Humedad Relativa) es igual a 100% y Ts <> Td 2.4 - 2.0 2023-11-21 01:01:00
1 2011-08-08 03:00:00 HR (Humedad Relativa) es igual a 100% y Ts <> Td 3.4 - 3.0 2023-11-21 01:01:00
1 2011-08-08 04:00:00 Ts debe ser mayor o igual a Td Ts=3.7 - Td=4.0 2023-11-21 01:01:00
1 2011-08-08 04:00:00 HR (Humedad Relativa) es igual a 100% y Ts <> Td 3.7 - 4.0 2023-11-21 01:01:00
1 2011-08-08 05:00:00 HR (Humedad Relativa) es igual a 100% y Ts <> Td 4.5 - 4.0 2023-11-21 01:01:00
1 2011-08-08 06:00:00 Ts debe ser mayor o igual a Td Ts=6.6 - Td=6.9 2023-11-21 01:01:00
1 2011-08-08 12:00:00 Ts debe ser mayor o igual a Td Ts=7.8 - Td=7.9 2023-11-21 01:01:00
1 2011-08-12 10:00:00 HR (Humedad Relativa) es igual a 100% y Ts <> Td 3.5 - 3.0 2023-11-21 01:01:00
1 2011-08-13 02:00:00 Ts debe ser mayor o igual a Td Ts=4.6 - Td=4.7 2023-11-21 01:01:00
1 2011-08-13 06:00:00 Ts debe ser mayor o igual a Td Ts=2.5 - Td=3.0 2023-11-21 01:01:00
1 2011-08-13 06:00:00 HR (Humedad Relativa) es igual a 100% y Ts <> Td 2.5 - 3.0 2023-11-21 01:01:00
1 2011-08-13 08:00:00 HR (Humedad Relativa) es igual a 100% y Ts <> Td 1.2 - 1.0 2023-11-21 01:01:00
1 2011-08-13 10:00:00 Ts debe ser mayor o igual a Td Ts=1.6 - Td=2.0 2023-11-21 01:01:00
1 2011-08-13 10:00:00 HR (Humedad Relativa) es igual a 100% y Ts <> Td 1.6 - 2.0 2023-11-21 01:01:00
1 2011-08-13 11:00:00 HR (Humedad Relativa) es igual a 100% y Ts <> Td 3.3 - 3.0 2023-11-21 01:01:00
1 2011-08-13 12:00:00 Ts debe ser mayor o igual a Td Ts=2.5 - Td=3.0 2023-11-21 01:01:00
1 2011-08-13 12:00:00 HR (Humedad Relativa) es igual a 100% y Ts <> Td 2.5 - 3.0 2023-11-21 01:01:00
1 2011-08-13 13:00:00 Ts debe ser mayor o igual a Td Ts=3.6 - Td=4.0 2023-11-21 01:01:00
1 2011-08-13 14:00:00 Ts debe ser mayor o igual a Td Ts=4.6 - Td=5.0 2023-11-21 01:01:00
1 2011-08-13 14:00:00 HR (Humedad Relativa) es igual a 100% y Ts <> Td 4.6 - 5.0 2023-11-21 01:01:00
1 2011-08-14 02:00:00 Ts debe ser mayor o igual a Td Ts=4.5 - Td=4.7 2023-11-21 01:01:00
1 2011-08-14 04:00:00 Ts debe ser mayor o igual a Td Ts=2.8 - Td=3.0 2023-11-21 01:01:00
1 2011-08-14 04:00:00 HR (Humedad Relativa) es igual a 100% y Ts <> Td 2.8 - 3.0 2023-11-21 01:01:00
1 2011-08-14 05:00:00 HR (Humedad Relativa) es igual a 100% y Ts <> Td 2.3 - 2.0 2023-11-21 01:01:00
1 2011-08-14 07:00:00 Ts debe ser mayor o igual a Td Ts=1.9 - Td=2.0 2023-11-21 01:01:00
1 2011-08-14 08:00:00 HR (Humedad Relativa) es igual a 100% y Ts <> Td 1.4 - 1.0 2023-11-21 01:01:00
1 2011-08-14 09:00:00 Ts debe ser mayor o igual a Td Ts=1.9 - Td=2.0 2023-11-21 01:01:00
1 2011-08-14 10:00:00 HR (Humedad Relativa) es igual a 100% y Ts <> Td 2.5 - 2.0 2023-11-21 01:01:00
1 2011-08-14 11:00:00 Ts debe ser mayor o igual a Td Ts=1.8 - Td=2.0 2023-11-21 01:01:00
1 2011-08-14 11:00:00 HR (Humedad Relativa) es igual a 100% y Ts <> Td 1.8 - 2.0 2023-11-21 01:01:00
1 2011-08-14 12:00:00 Ts debe ser mayor o igual a Td Ts=1.7 - Td=2.0 2023-11-21 01:01:00
1 2011-08-14 12:00:00 HR (Humedad Relativa) es igual a 100% y Ts <> Td 1.7 - 2.0 2023-11-21 01:01:00
1 2011-08-14 13:00:00 HR (Humedad Relativa) es igual a 100% y Ts <> Td 2.4 - 2.0 2023-11-21 01:01:00
1 2011-08-15 03:00:00 Ts debe ser mayor o igual a Td Ts=2.9 - Td=3.0 2023-11-21 01:01:00
1 2011-08-15 05:00:00 HR (Humedad Relativa) es igual a 100% y Ts <> Td 1.3 - 1.0 2023-11-21 01:01:00
1 2011-08-15 06:00:00 HR (Humedad Relativa) es igual a 100% y Ts <> Td 0.3 - 0.0 2023-11-21 01:01:00
1 2011-08-15 07:00:00 Ts debe ser mayor o igual a Td Ts=0.6 - Td=1.0 2023-11-21 01:01:00
1 2011-08-15 07:00:00 HR (Humedad Relativa) es igual a 100% y Ts <> Td 0.6 - 1.0 2023-11-21 01:01:00
1 2011-08-15 08:00:00 HR (Humedad Relativa) es igual a 100% y Ts <> Td -0.7 - -1.0 2023-11-21 01:01:00
1 2011-08-15 09:00:00 Ts debe ser mayor o igual a Td Ts=-1.4 - Td=-1.0 2023-11-21 01:01:00
1 2011-08-15 09:00:00 HR (Humedad Relativa) es igual a 100% y Ts <> Td -1.4 - -1.0 2023-11-21 01:01:00
1 2011-08-15 10:00:00 Ts debe ser mayor o igual a Td Ts=-1.4 - Td=-1.0 2023-11-21 01:01:00
1 2011-08-15 10:00:00 HR (Humedad Relativa) es igual a 100% y Ts <> Td -1.4 - -1.0 2023-11-21 01:01:00
1 2011-08-15 11:00:00 Ts debe ser mayor o igual a Td Ts=-1.5 - Td=-1.0 2023-11-21 01:01:00
1 2011-08-15 11:00:00 HR (Humedad Relativa) es igual a 100% y Ts <> Td -1.5 - -1.0 2023-11-21 01:01:00
1 2011-08-15 12:00:00 Ts debe ser mayor o igual a Td Ts=-1.2 - Td=-1.0 2023-11-21 01:01:00
1 2011-08-15 12:00:00 HR (Humedad Relativa) es igual a 100% y Ts <> Td -1.2 - -1.0 2023-11-21 01:01:00
1 2011-08-15 13:00:00 Ts debe ser mayor o igual a Td Ts=-0.5 - Td=0.0 2023-11-21 01:01:00
1 2011-08-15 13:00:00 HR (Humedad Relativa) es igual a 100% y Ts <> Td -0.5 - 0.0 2023-11-21 01:01:00
1 2011-08-15 15:00:00 Ts debe ser mayor o igual a Td Ts=3.5 - Td=3.7 2023-11-21 01:01:00
1 2011-08-16 06:00:00 Ts debe ser mayor o igual a Td Ts=2.7 - Td=2.9 2023-11-21 01:01:00
1 2011-08-17 11:00:00 Ts debe ser mayor o igual a Td Ts=3.8 - Td=4.0 2023-11-21 01:01:00
1 2011-08-17 11:00:00 HR (Humedad Relativa) es igual a 100% y Ts <> Td 3.8 - 4.0 2023-11-21 01:01:00
1 2011-08-18 01:00:00 HR (Humedad Relativa) es igual a 100% y Ts <> Td 3.3 - 3.0 2023-11-21 01:01:00
1 2011-08-18 04:00:00 Ts debe ser mayor o igual a Td Ts=3.8 - Td=4.0 2023-11-21 01:01:00
1 2011-08-18 04:00:00 HR (Humedad Relativa) es igual a 100% y Ts <> Td 3.8 - 4.0 2023-11-21 01:01:00
1 2011-08-18 05:00:00 HR (Humedad Relativa) es igual a 100% y Ts <> Td 3.5 - 3.0 2023-11-21 01:01:00
1 2011-08-18 09:00:00 HR (Humedad Relativa) es igual a 100% y Ts <> Td 0.3 - 0.0 2023-11-21 01:01:00
1 2011-08-18 10:00:00 HR (Humedad Relativa) es igual a 100% y Ts <> Td 0.4 - 0.0 2023-11-21 01:01:00
1 2011-08-18 12:00:00 Ts debe ser mayor o igual a Td Ts=1.9 - Td=2.0 2023-11-21 01:01:00
1 2011-08-18 13:00:00 HR (Humedad Relativa) es igual a 100% y Ts <> Td 3.2 - 3.0 2023-11-21 01:01:00
1 2011-08-19 01:00:00 Ts debe ser mayor o igual a Td Ts=2.7 - Td=2.9 2023-11-21 01:01:00
1 2011-08-19 03:00:00 Ts debe ser mayor o igual a Td Ts=1.8 - Td=2.0 2023-11-21 01:01:00
1 2011-08-19 03:00:00 HR (Humedad Relativa) es igual a 100% y Ts <> Td 1.8 - 2.0 2023-11-21 01:01:00
1 2011-08-19 04:00:00 HR (Humedad Relativa) es igual a 100% y Ts <> Td 1.4 - 1.0 2023-11-21 01:01:00
1 2011-08-19 05:00:00 HR (Humedad Relativa) es igual a 100% y Ts <> Td 1.4 - 1.0 2023-11-21 01:01:00
1 2011-08-19 06:00:00 HR (Humedad Relativa) es igual a 100% y Ts <> Td 1.3 - 1.0 2023-11-21 01:01:00
1 2011-08-19 07:00:00 HR (Humedad Relativa) es igual a 100% y Ts <> Td 1.3 - 1.0 2023-11-21 01:01:00
1 2011-08-19 09:00:00 Ts debe ser mayor o igual a Td Ts=0.5 - Td=1.0 2023-11-21 01:01:00
1 2011-08-19 09:00:00 HR (Humedad Relativa) es igual a 100% y Ts <> Td 0.5 - 1.0 2023-11-21 01:01:00
1 2011-08-19 10:00:00 Ts debe ser mayor o igual a Td Ts=0.6 - Td=1.0 2023-11-21 01:01:00
1 2011-08-19 10:00:00 HR (Humedad Relativa) es igual a 100% y Ts <> Td 0.6 - 1.0 2023-11-21 01:01:00
1 2011-08-19 12:00:00 Ts debe ser mayor o igual a Td Ts=1.8 - Td=2.0 2023-11-21 01:01:00
1 2011-08-19 12:00:00 HR (Humedad Relativa) es igual a 100% y Ts <> Td 1.8 - 2.0 2023-11-21 01:01:00
1 2011-08-20 03:00:00 Ts debe ser mayor o igual a Td Ts=2.6 - Td=2.9 2023-11-21 01:02:00
1 2011-08-20 04:00:00 HR (Humedad Relativa) es igual a 100% y Ts <> Td 1.4 - 1.0 2023-11-21 01:02:00
1 2011-08-20 05:00:00 HR (Humedad Relativa) es igual a 100% y Ts <> Td 0.4 - 0.0 2023-11-21 01:02:00
1 2011-08-20 06:00:00 HR (Humedad Relativa) es igual a 100% y Ts <> Td 1.4 - 1.0 2023-11-21 01:02:00
1 2011-08-20 07:00:00 Ts debe ser mayor o igual a Td Ts=1.8 - Td=2.0 2023-11-21 01:02:00
1 2011-08-20 07:00:00 HR (Humedad Relativa) es igual a 100% y Ts <> Td 1.8 - 2.0 2023-11-21 01:02:00
1 2011-08-20 08:00:00 HR (Humedad Relativa) es igual a 100% y Ts <> Td 2.2 - 2.0 2023-11-21 01:02:00
1 2011-08-20 09:00:00 Ts debe ser mayor o igual a Td Ts=1.9 - Td=2.0 2023-11-21 01:02:00
1 2011-08-20 10:00:00 HR (Humedad Relativa) es igual a 100% y Ts <> Td 2.4 - 2.0 2023-11-21 01:02:00
1 2011-08-21 07:00:00 Ts debe ser mayor o igual a Td Ts=4.5 - Td=5.0 2023-11-21 01:02:00
1 2011-08-21 07:00:00 HR (Humedad Relativa) es igual a 100% y Ts <> Td 4.5 - 5.0 2023-11-21 01:02:00
1 2011-08-21 08:00:00 Ts debe ser mayor o igual a Td Ts=4.9 - Td=5.0 2023-11-21 01:02:00
1 2011-08-21 12:00:00 Ts debe ser mayor o igual a Td Ts=3.8 - Td=4.0 2023-11-21 01:02:00
1 2011-08-21 12:00:00 HR (Humedad Relativa) es igual a 100% y Ts <> Td 3.8 - 4.0 2023-11-21 01:02:00
1 2011-08-22 04:00:00 HR (Humedad Relativa) es igual a 100% y Ts <> Td 1.4 - 1.0 2023-11-21 01:02:00
1 2011-08-22 05:00:00 Ts debe ser mayor o igual a Td Ts=0.7 - Td=1.0 2023-11-21 01:02:00
1 2011-08-22 05:00:00 HR (Humedad Relativa) es igual a 100% y Ts <> Td 0.7 - 1.0 2023-11-21 01:02:00
1 2011-08-22 06:00:00 Ts debe ser mayor o igual a Td Ts=0.8 - Td=1.0 2023-11-21 01:02:00
1 2011-08-22 09:00:00 Ts debe ser mayor o igual a Td Ts=1.8 - Td=2.0 2023-11-21 01:02:00
1 2011-08-22 09:00:00 HR (Humedad Relativa) es igual a 100% y Ts <> Td 1.8 - 2.0 2023-11-21 01:02:00
1 2011-08-22 10:00:00 Ts debe ser mayor o igual a Td Ts=2.5 - Td=3.0 2023-11-21 01:02:00
1 2011-08-22 10:00:00 HR (Humedad Relativa) es igual a 100% y Ts <> Td 2.5 - 3.0 2023-11-21 01:02:00
1 2011-08-23 08:00:00 Ts debe ser mayor o igual a Td Ts=5.9 - Td=6.0 2023-11-21 01:02:00
1 2011-08-23 09:00:00 Ts debe ser mayor o igual a Td Ts=5.8 - Td=6.0 2023-11-21 01:02:00
1 2011-08-23 10:00:00 Ts debe ser mayor o igual a Td Ts=5.9 - Td=6.0 2023-11-21 01:02:00
1 2011-08-23 11:00:00 Ts debe ser mayor o igual a Td Ts=5.6 - Td=6.0 2023-11-21 01:02:00
1 2011-08-23 11:00:00 HR (Humedad Relativa) es igual a 100% y Ts <> Td 5.6 - 6.0 2023-11-21 01:02:00
1 2011-08-23 13:00:00 Ts debe ser mayor o igual a Td Ts=5.8 - Td=6.0 2023-11-21 01:02:00
1 2011-08-24 03:00:00 Ts debe ser mayor o igual a Td Ts=4.6 - Td=4.7 2023-11-21 01:02:00
1 2011-08-24 05:00:00 Ts debe ser mayor o igual a Td Ts=2.8 - Td=3.0 2023-11-21 01:02:00
1 2011-08-27 10:00:00 Ts debe ser mayor o igual a Td Ts=2.6 - Td=3.0 2023-11-21 01:02:00
1 2011-08-27 10:00:00 HR (Humedad Relativa) es igual a 100% y Ts <> Td 2.6 - 3.0 2023-11-21 01:02:00
1 2011-08-27 11:00:00 Ts debe ser mayor o igual a Td Ts=3.6 - Td=4.0 2023-11-21 01:02:00
1 2011-08-27 11:00:00 HR (Humedad Relativa) es igual a 100% y Ts <> Td 3.6 - 4.0 2023-11-21 01:02:00
1 2011-08-27 12:00:00 HR (Humedad Relativa) es igual a 100% y Ts <> Td 3.2 - 3.0 2023-11-21 01:02:00
1 2011-08-30 06:00:00 Ts debe ser mayor o igual a Td Ts=1.6 - Td=1.7 2023-11-21 01:02:00
1 2011-08-30 09:00:00 Ts debe ser mayor o igual a Td Ts=0.8 - Td=1.0 2023-11-21 01:02:00
1 2011-08-30 10:00:00 Ts debe ser mayor o igual a Td Ts=1.6 - Td=1.9 2023-11-21 01:02:00
1 2011-08-30 11:00:00 HR (Humedad Relativa) es igual a 100% y Ts <> Td 0.4 - 0.0 2023-11-21 01:02:00
1 2011-08-30 12:00:00 HR (Humedad Relativa) es igual a 100% y Ts <> Td 0.2 - 0.0 2023-11-21 01:02:00
1 2011-08-31 05:00:00 Ts debe ser mayor o igual a Td Ts=2.7 - Td=3.0 2023-11-21 01:02:00
1 2011-08-31 07:00:00 Ts debe ser mayor o igual a Td Ts=1.6 - Td=2.0 2023-11-21 01:02:00
1 2011-08-31 09:00:00 Ts debe ser mayor o igual a Td Ts=0.9 - Td=1.0 2023-11-21 01:02:00
1 2011-08-31 12:00:00 Ts debe ser mayor o igual a Td Ts=0.9 - Td=1.0 2023-11-21 01:02:00
1 2011-09-01 23:00:00 Ts debe ser mayor o igual a Td Ts=8.6 - Td=8.7 2023-11-21 01:02:00
1 2011-09-03 00:00:00 Ts debe ser mayor o igual a Td Ts=6.6 - Td=7.0 2023-11-21 01:02:00
1 2011-09-03 05:00:00 Ts debe ser mayor o igual a Td Ts=4.7 - Td=4.9 2023-11-21 01:02:00
1 2011-09-03 12:00:00 Ts debe ser mayor o igual a Td Ts=3.7 - Td=4.0 2023-11-21 01:02:00
1 2011-09-04 05:00:00 Ts debe ser mayor o igual a Td Ts=4.7 - Td=4.9 2023-11-21 01:02:00
1 2011-09-04 06:00:00 Ts debe ser mayor o igual a Td Ts=4.8 - Td=4.9 2023-11-21 01:02:00
1 2011-09-04 08:00:00 Ts debe ser mayor o igual a Td Ts=2.9 - Td=3.0 2023-11-21 01:02:00
1 2011-09-04 09:00:00 Ts debe ser mayor o igual a Td Ts=2.8 - Td=3.0 2023-11-21 01:02:00
1 2011-09-04 09:00:00 HR (Humedad Relativa) es igual a 100% y Ts <> Td 2.8 - 3.0 2023-11-21 01:02:00
1 2011-09-04 10:00:00 HR (Humedad Relativa) es igual a 100% y Ts <> Td 2.4 - 2.0 2023-11-21 01:02:00
1 2011-09-04 11:00:00 Ts debe ser mayor o igual a Td Ts=3.6 - Td=3.7 2023-11-21 01:02:00
1 2011-09-06 06:00:00 HR (Humedad Relativa) es igual a 100% y Ts <> Td 2.2 - 2.0 2023-11-21 01:02:00
1 2011-09-06 07:00:00 HR (Humedad Relativa) es igual a 100% y Ts <> Td 3.4 - 3.0 2023-11-21 01:02:00
1 2011-09-06 08:00:00 Ts debe ser mayor o igual a Td Ts=1.8 - Td=2.0 2023-11-21 01:02:00
1 2011-09-06 08:00:00 HR (Humedad Relativa) es igual a 100% y Ts <> Td 1.8 - 2.0 2023-11-21 01:02:00
1 2011-09-06 11:00:00 Ts debe ser mayor o igual a Td Ts=0.6 - Td=1.0 2023-11-21 01:02:00
1 2011-09-06 11:00:00 HR (Humedad Relativa) es igual a 100% y Ts <> Td 0.6 - 1.0 2023-11-21 01:02:00
1 2011-09-06 13:00:00 Ts debe ser mayor o igual a Td Ts=3.6 - Td=3.9 2023-11-21 01:02:00
1 2011-09-07 05:00:00 Ts debe ser mayor o igual a Td Ts=6.6 - Td=6.9 2023-11-21 01:02:00
1 2011-09-07 07:00:00 Ts debe ser mayor o igual a Td Ts=6.5 - Td=7.0 2023-11-21 01:02:00
1 2011-09-07 07:00:00 HR (Humedad Relativa) es igual a 100% y Ts <> Td 6.5 - 7.0 2023-11-21 01:02:00
1 2011-09-07 08:00:00 HR (Humedad Relativa) es igual a 100% y Ts <> Td 6.5 - 6.0 2023-11-21 01:02:00
1 2011-09-07 09:00:00 HR (Humedad Relativa) es igual a 100% y Ts <> Td 6.4 - 6.0 2023-11-21 01:02:00
1 2011-09-07 10:00:00 HR (Humedad Relativa) es igual a 100% y Ts <> Td 6.4 - 6.0 2023-11-21 01:02:00
1 2011-09-07 11:00:00 Ts debe ser mayor o igual a Td Ts=5.7 - Td=6.0 2023-11-21 01:02:00
1 2011-09-07 11:00:00 HR (Humedad Relativa) es igual a 100% y Ts <> Td 5.7 - 6.0 2023-11-21 01:02:00
1 2011-09-07 12:00:00 Ts debe ser mayor o igual a Td Ts=5.8 - Td=6.0 2023-11-21 01:02:00
1 2011-09-08 12:00:00 Ts debe ser mayor o igual a Td Ts=8.6 - Td=9.0 2023-11-21 01:02:00
1 2011-09-10 10:00:00 Ts debe ser mayor o igual a Td Ts=4.8 - Td=4.9 2023-11-21 01:02:00
1 2011-09-11 10:00:00 HR (Humedad Relativa) es igual a 100% y Ts <> Td 8.4 - 8.0 2023-11-21 01:02:00
1 2011-09-11 11:00:00 Ts debe ser mayor o igual a Td Ts=8.8 - Td=9.0 2023-11-21 01:02:00
1 2011-09-11 12:00:00 Ts debe ser mayor o igual a Td Ts=8.9 - Td=9.0 2023-11-21 01:02:00
1 2011-09-11 13:00:00 HR (Humedad Relativa) es igual a 100% y Ts <> Td 9.3 - 9.0 2023-11-21 01:02:00
1 2011-09-12 00:00:00 Ts debe ser mayor o igual a Td Ts=8.6 - Td=8.8 2023-11-21 01:02:00
1 2011-09-12 01:00:00 Ts debe ser mayor o igual a Td Ts=8.5 - Td=8.8 2023-11-21 01:02:00
1 2011-09-12 03:00:00 Ts debe ser mayor o igual a Td Ts=7.9 - Td=8.0 2023-11-21 01:02:00
1 2011-09-12 04:00:00 Ts debe ser mayor o igual a Td Ts=7.9 - Td=8.0 2023-11-21 01:02:00
1 2011-09-12 06:00:00 HR (Humedad Relativa) es igual a 100% y Ts <> Td 6.3 - 6.0 2023-11-21 01:02:00
1 2011-09-12 10:00:00 Ts debe ser mayor o igual a Td Ts=5.6 - Td=6.0 2023-11-21 01:02:00
1 2011-09-12 11:00:00 Ts debe ser mayor o igual a Td Ts=5.6 - Td=5.9 2023-11-21 01:02:00
1 2011-09-13 05:00:00 Ts debe ser mayor o igual a Td Ts=3.6 - Td=3.7 2023-11-21 01:02:00
1 2011-09-13 06:00:00 HR (Humedad Relativa) es igual a 100% y Ts <> Td 2.5 - 2.0 2023-11-21 01:02:00
1 2011-09-13 07:00:00 Ts debe ser mayor o igual a Td Ts=2.8 - Td=3.0 2023-11-21 01:02:00
1 2011-09-13 07:00:00 HR (Humedad Relativa) es igual a 100% y Ts <> Td 2.8 - 3.0 2023-11-21 01:02:00
1 2011-09-13 08:00:00 Ts debe ser mayor o igual a Td Ts=1.8 - Td=2.0 2023-11-21 01:02:00
1 2011-09-13 08:00:00 HR (Humedad Relativa) es igual a 100% y Ts <> Td 1.8 - 2.0 2023-11-21 01:02:00
1 2011-09-13 10:00:00 HR (Humedad Relativa) es igual a 100% y Ts <> Td 1.2 - 1.0 2023-11-21 01:02:00
1 2011-09-13 11:00:00 HR (Humedad Relativa) es igual a 100% y Ts <> Td 1.5 - 1.0 2023-11-21 01:02:00
1 2011-09-13 12:00:00 Ts debe ser mayor o igual a Td Ts=2.8 - Td=3.0 2023-11-21 01:02:00
1 2011-09-13 12:00:00 HR (Humedad Relativa) es igual a 100% y Ts <> Td 2.8 - 3.0 2023-11-21 01:02:00
1 2011-10-10 08:00:00 Ts debe ser mayor o igual a Td Ts=3.0 - Td=3.1 2023-11-21 01:02:00
1 2011-10-10 10:00:00 Ts debe ser mayor o igual a Td Ts=3.2 - Td=3.3 2023-11-21 01:02:00
1 2011-10-13 06:00:00 Ts debe ser mayor o igual a Td Ts=2.4 - Td=3.4 2023-11-21 01:03:00
1 2011-10-13 06:00:00 HR (Humedad Relativa) es igual a 100% y Ts <> Td 2.4 - 3.4 2023-11-21 01:03:00
1 2011-10-13 09:00:00 Ts debe ser mayor o igual a Td Ts=2.4 - Td=2.5 2023-11-21 01:03:00
1 2011-10-13 10:00:00 HR (Humedad Relativa) es igual a 100% y Ts <> Td 3.9 - 2.4 2023-11-21 01:03:00
1 2011-10-13 11:00:00 HR (Humedad Relativa) es igual a 100% y Ts <> Td 5.7 - 3.9 2023-11-21 01:03:00
1 2011-12-23 05:00:00 Ts debe ser mayor o igual a Td Ts=4.8 - Td=4.9 2023-11-21 01:04:00
1 2012-02-21 11:00:00 Ts debe ser mayor o igual a Td Ts=7.4 - Td=7.5 2023-11-21 01:06:00
1 2012-04-22 09:00:00 Ts debe ser mayor o igual a Td Ts=6.4 - Td=6.5 2023-11-21 01:07:00
1 2012-04-28 08:00:00 Ts debe ser mayor o igual a Td Ts=2.2 - Td=2.3 2023-11-21 01:07:00
1 2012-05-21 02:00:00 Ts debe ser mayor o igual a Td Ts=1.2 - Td=1.3 2023-11-21 01:08:00
1 2012-05-24 00:00:00 Ts debe ser mayor o igual a Td Ts=4.4 - Td=4.5 2023-11-21 01:08:00
1 2012-06-08 09:00:00 Ts debe ser mayor o igual a Td Ts=1.0 - Td=1.1 2023-11-21 01:08:00
1 2012-06-10 07:00:00 Ts debe ser mayor o igual a Td Ts=0.4 - Td=0.5 2023-11-21 01:08:00
1 2012-06-10 17:00:00 Ts debe ser mayor o igual a Td Ts=3.6 - Td=3.7 2023-11-21 01:08:00
1 2012-06-14 06:00:00 Ts debe ser mayor o igual a Td Ts=-1.0 - Td=-0.9 2023-11-21 01:08:00
1 2012-06-22 05:00:00 Ts debe ser mayor o igual a Td Ts=4.6 - Td=4.7 2023-11-21 01:09:00
1 2012-06-24 07:00:00 Ts debe ser mayor o igual a Td Ts=2.2 - Td=2.3 2023-11-21 01:09:00
1 2012-06-26 03:00:00 Ts debe ser mayor o igual a Td Ts=1.2 - Td=1.3 2023-11-21 01:09:00
1 2012-07-21 11:00:00 Ts debe ser mayor o igual a Td Ts=5.4 - Td=5.5 2023-11-21 01:09:00
1 2012-07-24 10:00:00 Ts debe ser mayor o igual a Td Ts=2.8 - Td=2.9 2023-11-21 01:09:00
1 2012-07-31 04:00:00 Ts debe ser mayor o igual a Td Ts=-2.0 - Td=-1.9 2023-11-21 01:10:00
1 2012-07-31 05:00:00 Ts debe ser mayor o igual a Td Ts=-2.2 - Td=-2.1 2023-11-21 01:10:00
1 2012-07-31 15:00:00 Ts debe ser mayor o igual a Td Ts=2.8 - Td=2.9 2023-11-21 01:10:00
1 2012-09-16 07:00:00 Ts debe ser mayor o igual a Td Ts=6.4 - Td=6.5 2023-11-21 01:11:00
1 2012-09-28 08:00:00 Ts debe ser mayor o igual a Td Ts=6.2 - Td=6.3 2023-11-21 01:11:00
1 2012-10-08 04:00:00 Ts debe ser mayor o igual a Td Ts=4.2 - Td=5.5 2023-11-21 01:11:00
1 2012-10-08 05:00:00 Ts debe ser mayor o igual a Td Ts=4.1 - Td=5.7 2023-11-21 01:11:00
1 2012-10-08 06:00:00 Ts debe ser mayor o igual a Td Ts=3.0 - Td=5.2 2023-11-21 01:11:00
1 2012-10-08 07:00:00 Ts debe ser mayor o igual a Td Ts=3.2 - Td=4.4 2023-11-21 01:11:00
1 2012-10-09 09:00:00 Ts debe ser mayor o igual a Td Ts=8.2 - Td=8.3 2023-11-21 01:11:00
1 2012-10-09 10:00:00 Ts debe ser mayor o igual a Td Ts=8.1 - Td=8.3 2023-11-21 01:11:00
1 2012-10-09 11:00:00 Ts debe ser mayor o igual a Td Ts=8.1 - Td=9.4 2023-11-21 01:11:00
1 2012-10-09 12:00:00 Ts debe ser mayor o igual a Td Ts=8.6 - Td=9.5 2023-11-21 01:11:00
1 2012-10-10 04:00:00 Ts debe ser mayor o igual a Td Ts=6.9 - Td=8.0 2023-11-21 01:11:00
1 2012-10-10 05:00:00 Ts debe ser mayor o igual a Td Ts=6.8 - Td=8.1 2023-11-21 01:11:00
1 2012-10-10 06:00:00 Ts debe ser mayor o igual a Td Ts=6.8 - Td=8.0 2023-11-21 01:11:00
1 2012-10-10 09:00:00 HR (Humedad Relativa) es igual a 100% y Ts <> Td 8.0 - 7.6 2024-07-06 04:16:00
1 2012-10-10 10:00:00 HR (Humedad Relativa) es igual a 100% y Ts <> Td 8.0 - 7.1 2024-07-06 04:16:00
1 2013-04-23 08:00:00 Ts debe ser mayor o igual a Td Ts=4.8 - Td=4.9 2023-11-21 01:15:00
1 2013-04-26 03:00:00 Ts debe ser mayor o igual a Td Ts=5.4 - Td=5.5 2023-11-21 01:15:00
1 2013-05-19 10:00:00 Ts debe ser mayor o igual a Td Ts=4.2 - Td=4.3 2023-11-21 01:15:00
1 2013-05-31 07:00:00 Ts debe ser mayor o igual a Td Ts=7.6 - Td=7.7 2023-11-21 01:16:00
1 2013-06-12 10:00:00 Ts debe ser mayor o igual a Td Ts=6.8 - Td=6.9 2023-11-21 01:16:00
1 2013-06-16 09:00:00 Ts debe ser mayor o igual a Td Ts=1.6 - Td=1.7 2023-11-21 01:16:00
1 2013-06-16 12:00:00 Ts debe ser mayor o igual a Td Ts=0.2 - Td=0.3 2023-11-21 01:16:00
1 2013-06-18 11:00:00 Ts debe ser mayor o igual a Td Ts=0.8 - Td=0.9 2023-11-21 01:16:00
1 2013-06-19 02:00:00 Ts debe ser mayor o igual a Td Ts=1.8 - Td=1.9 2023-11-21 01:16:00
1 2013-06-20 12:00:00 Ts debe ser mayor o igual a Td Ts=6.6 - Td=6.7 2023-11-21 01:16:00
1 2013-06-23 14:00:00 Ts debe ser mayor o igual a Td Ts=6.0 - Td=6.1 2023-11-21 01:16:00
1 2013-06-30 09:00:00 Ts debe ser mayor o igual a Td Ts=0.6 - Td=0.7 2023-11-21 01:16:00
1 2013-06-30 23:00:00 Ts debe ser mayor o igual a Td Ts=7.8 - Td=7.9 2023-11-21 01:16:00
1 2013-07-04 06:00:00 Ts debe ser mayor o igual a Td Ts=4.0 - Td=4.1 2023-11-21 01:16:00
1 2013-07-05 03:00:00 Ts debe ser mayor o igual a Td Ts=1.4 - Td=1.5 2023-11-21 01:16:00
1 2013-07-27 11:00:00 Ts debe ser mayor o igual a Td Ts=2.4 - Td=2.5 2023-11-21 01:16:00
1 2013-08-18 03:00:00 Ts debe ser mayor o igual a Td Ts=2.2 - Td=2.3 2023-11-21 01:17:00
1 2013-09-03 10:00:00 Ts debe ser mayor o igual a Td Ts=0.2 - Td=0.3 2023-11-21 01:17:00
1 2013-09-21 09:00:00 Ts debe ser mayor o igual a Td Ts=-0.6 - Td=-0.5 2023-11-21 01:17:00
1 2013-12-06 10:00:00 Ts debe ser mayor o igual a Td Ts=4.6 - Td=4.7 2023-11-21 01:18:00
1 2014-03-06 11:00:00 Ts debe ser mayor o igual a Td Ts=3.4 - Td=3.5 2023-11-21 01:20:00
1 2014-04-03 12:00:00 Ts debe ser mayor o igual a Td Ts=7.0 - Td=7.1 2023-11-21 01:20:00
1 2014-04-13 08:00:00 Ts debe ser mayor o igual a Td Ts=1.4 - Td=1.5 2023-11-21 01:20:00
1 2014-04-19 05:00:00 Ts debe ser mayor o igual a Td Ts=1.8 - Td=1.9 2023-11-21 01:20:00
1 2014-05-16 12:00:00 Ts debe ser mayor o igual a Td Ts=2.8 - Td=2.9 2023-11-21 01:21:00
1 2014-05-25 13:00:00 Ts debe ser mayor o igual a Td Ts=7.8 - Td=7.9 2023-11-21 01:21:00
1 2014-06-16 08:00:00 Ts debe ser mayor o igual a Td Ts=1.2 - Td=1.3 2023-11-21 01:21:00
1 2014-06-16 13:00:00 Ts debe ser mayor o igual a Td Ts=1.4 - Td=1.5 2023-11-21 01:21:00
1 2014-06-17 12:00:00 Ts debe ser mayor o igual a Td Ts=4.0 - Td=4.1 2023-11-21 01:21:00
1 2014-06-25 04:00:00 Ts debe ser mayor o igual a Td Ts=4.4 - Td=4.5 2023-11-21 01:21:00
1 2014-06-28 04:00:00 Ts debe ser mayor o igual a Td Ts=5.6 - Td=5.7 2023-11-21 01:21:00
1 2014-07-11 16:00:00 Ts debe ser mayor o igual a Td Ts=7.6 - Td=7.7 2023-11-21 01:21:00
1 2014-07-23 12:00:00 Ts debe ser mayor o igual a Td Ts=1.0 - Td=1.1 2023-11-21 01:22:00
1 2014-07-26 14:00:00 Ts debe ser mayor o igual a Td Ts=4.8 - Td=4.9 2023-11-21 01:22:00
1 2014-08-08 15:00:00 Ts debe ser mayor o igual a Td Ts=4.6 - Td=4.7 2023-11-21 01:22:00
1 2014-08-10 05:00:00 Ts debe ser mayor o igual a Td Ts=1.6 - Td=1.7 2023-11-21 01:22:00
1 2014-08-14 11:00:00 Ts debe ser mayor o igual a Td Ts=-0.2 - Td=-0.1 2023-11-21 01:22:00
1 2014-08-19 06:00:00 Ts debe ser mayor o igual a Td Ts=6.6 - Td=6.7 2023-11-21 01:22:00
1 2014-08-25 03:00:00 Ts debe ser mayor o igual a Td Ts=6.6 - Td=6.7 2023-11-21 01:22:00
1 2014-10-10 08:00:00 Ts debe ser mayor o igual a Td Ts=2.6 - Td=2.7 2023-11-21 01:23:00
1 2015-01-30 10:00:00 Ts debe ser mayor o igual a Td Ts=5.0 - Td=5.1 2023-11-21 01:25:00
1 2015-03-08 10:00:00 Ts debe ser mayor o igual a Td Ts=6.2 - Td=6.3 2023-11-21 01:26:00
1 2015-04-14 12:00:00 Ts debe ser mayor o igual a Td Ts=6.2 - Td=6.3 2023-11-21 01:27:00
1 2015-04-23 08:00:00 Ts debe ser mayor o igual a Td Ts=5.8 - Td=5.9 2023-11-21 01:27:00
1 2015-05-04 11:00:00 Ts debe ser mayor o igual a Td Ts=7.4 - Td=7.5 2023-11-21 01:27:00
1 2015-05-05 05:00:00 Ts debe ser mayor o igual a Td Ts=6.0 - Td=6.1 2023-11-21 01:27:00
1 2015-05-05 23:00:00 Ts debe ser mayor o igual a Td Ts=7.2 - Td=7.3 2023-11-21 01:27:00
1 2015-05-07 06:00:00 Ts debe ser mayor o igual a Td Ts=3.8 - Td=3.9 2023-11-21 01:27:00
1 2015-05-26 14:00:00 Ts debe ser mayor o igual a Td Ts=2.4 - Td=2.5 2023-11-21 01:27:00
1 2015-05-31 08:00:00 Ts debe ser mayor o igual a Td Ts=7.6 - Td=7.7 2023-11-21 01:27:00
1 2015-06-20 06:00:00 Ts debe ser mayor o igual a Td Ts=4.8 - Td=4.9 2023-11-21 01:28:00
1 2015-06-21 03:00:00 Ts debe ser mayor o igual a Td Ts=4.2 - Td=4.3 2023-11-21 01:28:00
1 2015-06-23 03:00:00 Ts debe ser mayor o igual a Td Ts=-2.0 - Td=-1.9 2023-11-21 01:28:00
1 2015-07-03 14:00:00 Ts debe ser mayor o igual a Td Ts=0.4 - Td=0.5 2023-11-21 01:28:00
1 2015-07-11 09:00:00 Ts debe ser mayor o igual a Td Ts=1.6 - Td=1.7 2023-11-21 01:28:00
1 2015-07-18 14:00:00 Ts debe ser mayor o igual a Td Ts=1.4 - Td=1.5 2023-11-21 01:28:00
1 2015-07-20 04:00:00 Ts debe ser mayor o igual a Td Ts=-1.2 - Td=-1.1 2023-11-21 01:28:00
1 2015-07-20 08:00:00 Ts debe ser mayor o igual a Td Ts=-0.8 - Td=-0.7 2023-11-21 01:28:00
1 2015-08-06 08:00:00 Ts debe ser mayor o igual a Td Ts=6.4 - Td=6.5 2023-11-21 01:29:00
1 2015-08-13 13:00:00 Ts debe ser mayor o igual a Td Ts=1.6 - Td=1.7 2023-11-21 01:29:00
1 2015-08-21 08:00:00 Ts debe ser mayor o igual a Td Ts=7.8 - Td=7.9 2023-11-21 01:29:00
1 2015-09-21 09:00:00 Ts debe ser mayor o igual a Td Ts=2.2 - Td=2.3 2023-11-21 01:30:00
1 2015-10-22 03:00:00 Ts debe ser mayor o igual a Td Ts=2.2 - Td=2.3 2023-11-21 01:30:00
1 2015-12-15 09:00:00 Ts debe ser mayor o igual a Td Ts=1.2 - Td=1.3 2023-11-21 01:31:00
1 2015-12-25 07:00:00 Ts debe ser mayor o igual a Td Ts=6.0 - Td=6.1 2023-11-21 01:32:00
1 2016-04-12 12:00:00 Ts debe ser mayor o igual a Td Ts=2.6 - Td=2.7 2023-11-21 01:33:00
1 2016-04-28 08:00:00 Ts debe ser mayor o igual a Td Ts=3.0 - Td=3.1 2023-11-21 01:33:00
1 2016-04-30 07:00:00 Ts debe ser mayor o igual a Td Ts=2.2 - Td=2.3 2023-11-21 01:33:00
1 2016-05-07 07:00:00 Ts debe ser mayor o igual a Td Ts=6.0 - Td=6.1 2023-11-21 01:33:00
1 2016-05-20 11:00:00 Ts debe ser mayor o igual a Td Ts=5.4 - Td=5.5 2023-11-21 01:34:00
1 2016-05-24 03:00:00 Ts debe ser mayor o igual a Td Ts=3.4 - Td=3.5 2023-11-21 01:34:00
1 2016-05-27 06:00:00 Ts debe ser mayor o igual a Td Ts=3.0 - Td=3.1 2023-11-21 01:34:00
1 2016-06-02 00:00:00 Ts debe ser mayor o igual a Td Ts=5.4 - Td=5.5 2023-11-21 01:34:00
1 2016-06-03 02:00:00 Ts debe ser mayor o igual a Td Ts=5.0 - Td=5.1 2023-11-21 01:34:00
Errores del Nivel 1264
Nivel Fecha del Dato Descripción Información Error Fecha Ingreso
2 2020-01-30 12:00:00 Temperatura 5.1 del 30-01-2020 08:00, Menor que la Mínima 7.8 30-01-2020 12:00 5.1 -- 7.8 2020-01-30 12:30:00
Errores del Nivel 1
Informe generado el 24-07-2024 11:45
Requerimiento: RE6001